PWSweather.com
Personal Weather Stations
Station Observations
KOHREFORM1
Reform, Ohio, Newark, OH 43055

Reform, OhioNewark, OH 43055

Lat: 40.1502, Lon: -82.2417

Elevation: 1043

Station Type: Davis Vantage Pro 2 Plus

randysweatheronthehill.com

High Low Average
Temperature 61.3°F16.3°C 44.4°F6.9°C 51.2°F10.7°C
Dew Point 48.9°F9.4°C 42.2°F5.7°C 45.9°F7.7°C
Winds 14.0 mph 22.5 kmh Calm Calm 2.0 mph S3.2 kmh S
Wind Gusts 25.0 mph40.2 kmh -- 6.0 mph9.7 kmh
Humidity 97% 61% 87%
Pressure 30.07 in1018.3 mb 29.57 in1001.4 mb -
Precipitation 0.33 in8.4 mm - -
Hour Temp Dew Point Humidity Winds Wind Gusts Pressure Precip Precip Rate Daily Precip Total
12:01 AM 47.9°F8.8°C 45.7°F7.6°C 96% Calm Calm -- 30.07 in1018.3 mb 0.00 in0.0 mm 0.00 in0.0 mm 0.00 in0.0 mm
12:03 AM 48.0°F8.9°C 45.8°F7.7°C 96% Calm Calm -- 30.07 in1018.3 mb 0.00 in0.0 mm 0.00 in0.0 mm 0.00 in0.0 mm
12:05 AM 48.0°F8.9°C 45.8°F7.7°C 96% Calm Calm -- 30.07 in1018.3 mb 0.00 in0.0 mm 0.00 in0.0 mm 0.00 in0.0 mm
12:07 AM 48.0°F8.9°C 45.8°F7.7°C 96% Calm Calm -- 30.07 in1018.3 mb 0.00 in0.0 mm 0.00 in0.0 mm 0.00 in0.0 mm
12:09 AM 48.1°F8.9°C 45.9°F7.7°C 96% Calm Calm -- 30.07 in1018.3 mb 0.00 in0.0 mm 0.00 in0.0 mm 0.00 in0.0 mm
12:11 AM 48.1°F8.9°C 45.9°F7.7°C 96% Calm Calm -- 30.07 in1018.3 mb 0.00 in0.0 mm 0.00 in0.0 mm 0.00 in0.0 mm
12:13 AM 48.1°F8.9°C 45.9°F7.7°C 96% Calm Calm -- 30.07 in1018.3 mb 0.00 in0.0 mm 0.00 in0.0 mm 0.00 in0.0 mm
12:15 AM 48.2°F9.0°C 46.0°F7.8°C 96% Calm Calm -- 30.07 in1018.3 mb 0.00 in0.0 mm 0.00 in0.0 mm 0.00 in0.0 mm
12:17 AM 48.2°F9.0°C 46.0°F7.8°C 96% Calm Calm -- 30.07 in1018.3 mb 0.00 in0.0 mm 0.00 in0.0 mm 0.00 in0.0 mm
12:19 AM 48.3°F9.1°C 46.1°F7.8°C 96% Calm Calm -- 30.07 in1018.3 mb 0.00 in0.0 mm 0.00 in0.0 mm 0.00 in0.0 mm
12:21 AM 48.3°F9.1°C 46.1°F7.8°C 96% Calm Calm -- 30.07 in1018.3 mb 0.00 in0.0 mm 0.00 in0.0 mm 0.00 in0.0 mm
12:23 AM 48.4°F9.1°C 46.2°F7.9°C 96% Calm Calm -- 30.07 in1018.3 mb 0.00 in0.0 mm 0.00 in0.0 mm 0.00 in0.0 mm
12:25 AM 48.4°F9.1°C 46.2°F7.9°C 96% 1.0 mph WSW1.6 kmh WSW 2.0 mph3.2 kmh 30.07 in1018.3 mb 0.00 in0.0 mm 0.00 in0.0 mm 0.00 in0.0 mm
12:27 AM 48.4°F9.1°C 46.2°F7.9°C 96% Calm Calm 2.0 mph3.2 kmh 30.07 in1018.3 mb 0.00 in0.0 mm 0.00 in0.0 mm 0.00 in0.0 mm
12:29 AM 48.4°F9.1°C 46.2°F7.9°C 96% Calm Calm -- 30.07 in1018.3 mb 0.00 in0.0 mm 0.00 in0.0 mm 0.00 in0.0 mm
12:31 AM 48.3°F9.1°C 46.1°F7.8°C 96% Calm Calm -- 30.07 in1018.3 mb 0.00 in0.0 mm 0.00 in0.0 mm 0.00 in0.0 mm
12:33 AM 48.3°F9.1°C 46.1°F7.8°C 96% Calm Calm -- 30.07 in1018.3 mb 0.00 in0.0 mm 0.00 in0.0 mm 0.00 in0.0 mm
12:35 AM 48.3°F9.1°C 46.1°F7.8°C 96% Calm Calm -- 30.07 in1018.3 mb 0.00 in0.0 mm 0.00 in0.0 mm 0.00 in0.0 mm
12:37 AM 48.3°F9.1°C 46.1°F7.8°C 96% 1.0 mph SW1.6 kmh SW 3.0 mph4.8 kmh 30.07 in1018.3 mb 0.00 in0.0 mm 0.00 in0.0 mm 0.00 in0.0 mm
12:39 AM 48.2°F9.0°C 46.0°F7.8°C 96% 1.0 mph SW1.6 kmh SW 3.0 mph4.8 kmh 30.07 in1018.3 mb 0.00 in0.0 mm 0.00 in0.0 mm 0.00 in0.0 mm
12:41 AM 48.2°F9.0°C 46.0°F7.8°C 96% Calm Calm -- 30.06 in1017.9 mb 0.00 in0.0 mm 0.00 in0.0 mm 0.00 in0.0 mm
12:43 AM 48.1°F8.9°C 45.9°F7.7°C 96% Calm Calm 2.0 mph3.2 kmh 30.06 in1017.9 mb 0.00 in0.0 mm 0.00 in0.0 mm 0.00 in0.0 mm
12:45 AM 48.1°F8.9°C 45.9°F7.7°C 96% Calm Calm 2.0 mph3.2 kmh 30.06 in1017.9 mb 0.00 in0.0 mm 0.00 in0.0 mm 0.00 in0.0 mm
12:47 AM 48.0°F8.9°C 45.8°F7.7°C 96% Calm Calm -- 30.06 in1017.9 mb 0.00 in0.0 mm 0.00 in0.0 mm 0.00 in0.0 mm
12:49 AM 48.0°F8.9°C 45.8°F7.7°C 96% Calm Calm -- 30.06 in1017.9 mb 0.00 in0.0 mm 0.00 in0.0 mm 0.00 in0.0 mm
12:51 AM 48.1°F8.9°C 45.9°F7.7°C 96% Calm Calm -- 30.06 in1017.9 mb 0.00 in0.0 mm 0.00 in0.0 mm 0.00 in0.0 mm
12:53 AM 48.1°F8.9°C 45.9°F7.7°C 96% Calm Calm -- 30.06 in1017.9 mb 0.00 in0.0 mm 0.00 in0.0 mm 0.00 in0.0 mm
12:55 AM 48.1°F8.9°C 45.9°F7.7°C 96% Calm Calm 1.0 mph1.6 kmh 30.06 in1017.9 mb 0.00 in0.0 mm 0.00 in0.0 mm 0.00 in0.0 mm
12:57 AM 48.2°F9.0°C 46.0°F7.8°C 96% Calm Calm -- 30.06 in1017.9 mb 0.00 in0.0 mm 0.00 in0.0 mm 0.00 in0.0 mm
12:59 AM 48.2°F9.0°C 46.0°F7.8°C 96% Calm Calm -- 30.06 in1017.9 mb 0.00 in0.0 mm 0.00 in0.0 mm 0.00 in0.0 mm
01:01 AM 48.2°F9.0°C 46.0°F7.8°C 96% Calm Calm 2.0 mph3.2 kmh 30.06 in1017.9 mb 0.00 in0.0 mm 0.00 in0.0 mm 0.00 in0.0 mm
01:03 AM 48.1°F8.9°C 45.9°F7.7°C 96% 1.0 mph SW1.6 kmh SW 2.0 mph3.2 kmh 30.06 in1017.9 mb 0.00 in0.0 mm 0.00 in0.0 mm 0.00 in0.0 mm
01:05 AM 48.1°F8.9°C 45.9°F7.7°C 96% Calm Calm -- 30.06 in1017.9 mb 0.00 in0.0 mm 0.00 in0.0 mm 0.00 in0.0 mm
01:07 AM 48.0°F8.9°C 45.8°F7.7°C 96% Calm Calm -- 30.06 in1017.9 mb 0.00 in0.0 mm 0.00 in0.0 mm 0.00 in0.0 mm
01:09 AM 47.9°F8.8°C 45.7°F7.6°C 96% Calm Calm -- 30.06 in1017.9 mb 0.00 in0.0 mm 0.00 in0.0 mm 0.00 in0.0 mm
01:11 AM 47.8°F8.8°C 45.6°F7.6°C 96% Calm Calm 2.0 mph3.2 kmh 30.06 in1017.9 mb 0.00 in0.0 mm 0.00 in0.0 mm 0.00 in0.0 mm
01:13 AM 47.7°F8.7°C 45.5°F7.5°C 96% Calm Calm -- 30.06 in1017.9 mb 0.00 in0.0 mm 0.00 in0.0 mm 0.00 in0.0 mm
01:15 AM 47.6°F8.7°C 45.4°F7.4°C 96% Calm Calm -- 30.06 in1017.9 mb 0.00 in0.0 mm 0.00 in0.0 mm 0.00 in0.0 mm
01:17 AM 47.6°F8.7°C 45.4°F7.4°C 96% Calm Calm 2.0 mph3.2 kmh 30.06 in1017.9 mb 0.00 in0.0 mm 0.00 in0.0 mm 0.00 in0.0 mm
01:19 AM 47.6°F8.7°C 45.4°F7.4°C 96% Calm Calm -- 30.06 in1017.9 mb 0.00 in0.0 mm 0.00 in0.0 mm 0.00 in0.0 mm
01:21 AM 47.4°F8.6°C 45.2°F7.3°C 96% Calm Calm -- 30.06 in1017.9 mb 0.00 in0.0 mm 0.00 in0.0 mm 0.00 in0.0 mm
01:23 AM 47.4°F8.6°C 45.2°F7.3°C 96% 1.0 mph SW1.6 kmh SW 1.0 mph1.6 kmh 30.05 in1017.6 mb 0.00 in0.0 mm 0.00 in0.0 mm 0.01 in0.3 mm
01:25 AM 47.4°F8.6°C 45.2°F7.3°C 96% 1.0 mph SW1.6 kmh SW 3.0 mph4.8 kmh 30.05 in1017.6 mb 0.00 in0.0 mm 0.00 in0.0 mm 0.01 in0.3 mm
01:27 AM 47.5°F8.6°C 45.3°F7.4°C 96% 1.0 mph SE1.6 kmh SE 3.0 mph4.8 kmh 30.05 in1017.6 mb 0.00 in0.0 mm 0.00 in0.0 mm 0.01 in0.3 mm
01:29 AM 47.5°F8.6°C 45.3°F7.4°C 96% Calm Calm 3.0 mph4.8 kmh 30.05 in1017.6 mb 0.00 in0.0 mm 0.00 in0.0 mm 0.01 in0.3 mm
01:31 AM 47.6°F8.7°C 45.4°F7.4°C 96% 2.0 mph WSW3.2 kmh WSW 2.0 mph3.2 kmh 30.05 in1017.6 mb 0.00 in0.0 mm 0.00 in0.0 mm 0.01 in0.3 mm
01:33 AM 47.6°F8.7°C 45.4°F7.4°C 96% 1.0 mph WSW1.6 kmh WSW 2.0 mph3.2 kmh 30.05 in1017.6 mb 0.00 in0.0 mm 0.00 in0.0 mm 0.01 in0.3 mm
01:35 AM 47.6°F8.7°C 45.4°F7.4°C 96% 1.0 mph S1.6 kmh S 2.0 mph3.2 kmh 30.05 in1017.6 mb 0.05 in1.3 mm 1.50 in38.1 mm 0.02 in0.5 mm
01:37 AM 47.7°F8.7°C 45.5°F7.5°C 96% 1.0 mph SW1.6 kmh SW 3.0 mph4.8 kmh 30.05 in1017.6 mb 0.05 in1.3 mm 0.00 in0.0 mm 0.02 in0.5 mm
01:39 AM 47.8°F8.8°C 45.6°F7.6°C 96% 2.0 mph SW3.2 kmh SW 3.0 mph4.8 kmh 30.05 in1017.6 mb 0.05 in1.3 mm 0.00 in0.0 mm 0.02 in0.5 mm
01:41 AM 48.0°F8.9°C 45.8°F7.7°C 96% 1.0 mph SE1.6 kmh SE 3.0 mph4.8 kmh 30.05 in1017.6 mb 0.05 in1.3 mm 0.00 in0.0 mm 0.02 in0.5 mm
01:43 AM 48.2°F9.0°C 46.0°F7.8°C 96% 1.0 mph S1.6 kmh S 3.0 mph4.8 kmh 30.05 in1017.6 mb 0.05 in1.3 mm 0.00 in0.0 mm 0.02 in0.5 mm
01:45 AM 48.3°F9.1°C 46.1°F7.8°C 96% 1.0 mph S1.6 kmh S 4.0 mph6.4 kmh 30.04 in1017.3 mb 0.05 in1.3 mm 0.00 in0.0 mm 0.02 in0.5 mm
01:47 AM 48.4°F9.1°C 46.2°F7.9°C 96% 1.0 mph S1.6 kmh S 4.0 mph6.4 kmh 30.05 in1017.6 mb 0.05 in1.3 mm 0.00 in0.0 mm 0.02 in0.5 mm
01:49 AM 48.4°F9.1°C 46.2°F7.9°C 96% Calm Calm -- 30.05 in1017.6 mb 0.04 in1.0 mm 0.00 in0.0 mm 0.02 in0.5 mm
01:51 AM 48.4°F9.1°C 46.2°F7.9°C 96% Calm Calm -- 30.05 in1017.6 mb 0.00 in0.0 mm 0.00 in0.0 mm 0.02 in0.5 mm
01:53 AM 48.4°F9.1°C 46.2°F7.9°C 96% Calm Calm 1.0 mph1.6 kmh 30.05 in1017.6 mb 0.00 in0.0 mm 0.00 in0.0 mm 0.02 in0.5 mm
01:55 AM 48.4°F9.1°C 46.2°F7.9°C 96% Calm Calm -- 30.04 in1017.3 mb 0.00 in0.0 mm 0.00 in0.0 mm 0.02 in0.5 mm
01:57 AM 48.3°F9.1°C 46.1°F7.8°C 96% Calm Calm -- 30.04 in1017.3 mb 0.00 in0.0 mm 0.00 in0.0 mm 0.02 in0.5 mm
01:59 AM 48.3°F9.1°C 46.1°F7.8°C 96% Calm Calm -- 30.04 in1017.3 mb 0.00 in0.0 mm 0.00 in0.0 mm 0.02 in0.5 mm
02:01 AM 48.3°F9.1°C 46.1°F7.8°C 96% Calm Calm -- 30.04 in1017.3 mb 0.00 in0.0 mm 0.00 in0.0 mm 0.02 in0.5 mm
02:03 AM 48.2°F9.0°C 46.0°F7.8°C 96% Calm Calm -- 30.04 in1017.3 mb 0.00 in0.0 mm 0.00 in0.0 mm 0.02 in0.5 mm
02:05 AM 48.2°F9.0°C 46.0°F7.8°C 96% Calm Calm -- 30.04 in1017.3 mb 0.00 in0.0 mm 0.00 in0.0 mm 0.02 in0.5 mm
02:07 AM 48.2°F9.0°C 46.0°F7.8°C 96% Calm Calm -- 30.04 in1017.3 mb 0.00 in0.0 mm 0.00 in0.0 mm 0.02 in0.5 mm
02:09 AM 48.2°F9.0°C 46.0°F7.8°C 96% Calm Calm -- 30.04 in1017.3 mb 0.00 in0.0 mm 0.00 in0.0 mm 0.02 in0.5 mm
02:11 AM 48.1°F8.9°C 45.9°F7.7°C 96% Calm Calm -- 30.04 in1017.3 mb 0.00 in0.0 mm 0.00 in0.0 mm 0.02 in0.5 mm
02:13 AM 48.1°F8.9°C 45.9°F7.7°C 96% Calm Calm -- 30.04 in1017.3 mb 0.00 in0.0 mm 0.00 in0.0 mm 0.03 in0.8 mm
02:15 AM 48.1°F8.9°C 45.9°F7.7°C 96% Calm Calm -- 30.04 in1017.3 mb 0.00 in0.0 mm 0.00 in0.0 mm 0.03 in0.8 mm
02:17 AM 48.1°F8.9°C 45.9°F7.7°C 96% Calm Calm -- 30.04 in1017.3 mb 0.00 in0.0 mm 0.00 in0.0 mm 0.03 in0.8 mm
02:19 AM 48.1°F8.9°C 45.9°F7.7°C 96% Calm Calm -- 30.04 in1017.3 mb 0.00 in0.0 mm 0.00 in0.0 mm 0.03 in0.8 mm
02:21 AM 48.1°F8.9°C 45.9°F7.7°C 96% 1.0 mph S1.6 kmh S 2.0 mph3.2 kmh 30.04 in1017.3 mb 0.00 in0.0 mm 0.00 in0.0 mm 0.03 in0.8 mm
02:23 AM 48.1°F8.9°C 45.9°F7.7°C 96% 1.0 mph S1.6 kmh S 1.0 mph1.6 kmh 30.04 in1017.3 mb 0.00 in0.0 mm 0.00 in0.0 mm 0.03 in0.8 mm
02:25 AM 48.1°F8.9°C 45.9°F7.7°C 96% Calm Calm 1.0 mph1.6 kmh 30.04 in1017.3 mb 0.00 in0.0 mm 0.00 in0.0 mm 0.03 in0.8 mm
02:27 AM 48.1°F8.9°C 45.9°F7.7°C 96% 1.0 mph S1.6 kmh S 2.0 mph3.2 kmh 30.03 in1016.9 mb 0.00 in0.0 mm 0.00 in0.0 mm 0.03 in0.8 mm
02:29 AM 48.2°F9.0°C 46.0°F7.8°C 96% Calm Calm -- 30.03 in1016.9 mb 0.00 in0.0 mm 0.00 in0.0 mm 0.03 in0.8 mm
02:31 AM 48.2°F9.0°C 46.0°F7.8°C 96% Calm Calm 1.0 mph1.6 kmh 30.03 in1016.9 mb 0.00 in0.0 mm 0.00 in0.0 mm 0.03 in0.8 mm
02:33 AM 48.1°F8.9°C 45.9°F7.7°C 96% Calm Calm -- 30.03 in1016.9 mb 0.00 in0.0 mm 0.00 in0.0 mm 0.03 in0.8 mm
02:35 AM 48.2°F9.0°C 46.0°F7.8°C 96% Calm Calm 2.0 mph3.2 kmh 30.03 in1016.9 mb 0.00 in0.0 mm 0.00 in0.0 mm 0.03 in0.8 mm
02:37 AM 48.2°F9.0°C 46.0°F7.8°C 96% 1.0 mph S1.6 kmh S 3.0 mph4.8 kmh 30.03 in1016.9 mb 0.00 in0.0 mm 0.00 in0.0 mm 0.03 in0.8 mm
02:39 AM 48.2°F9.0°C 46.0°F7.8°C 96% Calm Calm 3.0 mph4.8 kmh 30.03 in1016.9 mb 0.00 in0.0 mm 0.00 in0.0 mm 0.03 in0.8 mm
02:41 AM 48.2°F9.0°C 46.0°F7.8°C 96% 1.0 mph S1.6 kmh S 3.0 mph4.8 kmh 30.03 in1016.9 mb 0.00 in0.0 mm 0.00 in0.0 mm 0.03 in0.8 mm
02:43 AM 48.2°F9.0°C 46.0°F7.8°C 96% Calm Calm -- 30.03 in1016.9 mb 0.00 in0.0 mm 0.00 in0.0 mm 0.03 in0.8 mm
02:45 AM 48.2°F9.0°C 46.0°F7.8°C 96% 1.0 mph S1.6 kmh S 1.0 mph1.6 kmh 30.03 in1016.9 mb 0.00 in0.0 mm 0.00 in0.0 mm 0.03 in0.8 mm
02:47 AM 48.1°F8.9°C 45.9°F7.7°C 96% Calm Calm 4.0 mph6.4 kmh 30.03 in1016.9 mb 0.00 in0.0 mm 0.00 in0.0 mm 0.03 in0.8 mm
02:49 AM 48.1°F8.9°C 45.9°F7.7°C 96% Calm Calm 4.0 mph6.4 kmh 30.03 in1016.9 mb 0.00 in0.0 mm 0.00 in0.0 mm 0.03 in0.8 mm
02:51 AM 48.1°F8.9°C 45.9°F7.7°C 96% Calm Calm 4.0 mph6.4 kmh 30.03 in1016.9 mb 0.00 in0.0 mm 0.00 in0.0 mm 0.03 in0.8 mm
02:53 AM 48.0°F8.9°C 45.8°F7.7°C 96% Calm Calm 4.0 mph6.4 kmh 30.03 in1016.9 mb 0.00 in0.0 mm 0.00 in0.0 mm 0.03 in0.8 mm
02:55 AM 48.0°F8.9°C 45.8°F7.7°C 96% 1.0 mph SSE1.6 kmh SSE 3.0 mph4.8 kmh 30.03 in1016.9 mb 0.00 in0.0 mm 0.00 in0.0 mm 0.03 in0.8 mm
02:57 AM 47.9°F8.8°C 45.7°F7.6°C 96% Calm Calm 3.0 mph4.8 kmh 30.03 in1016.9 mb 0.00 in0.0 mm 0.00 in0.0 mm 0.03 in0.8 mm
02:59 AM 47.9°F8.8°C 45.7°F7.6°C 96% Calm Calm -- 30.03 in1016.9 mb 0.00 in0.0 mm 0.00 in0.0 mm 0.03 in0.8 mm
03:01 AM 47.8°F8.8°C 45.6°F7.6°C 96% Calm Calm -- 30.02 in1016.6 mb 0.00 in0.0 mm 0.00 in0.0 mm 0.03 in0.8 mm
03:03 AM 47.8°F8.8°C 45.6°F7.6°C 96% Calm Calm -- 30.02 in1016.6 mb 0.00 in0.0 mm 0.00 in0.0 mm 0.03 in0.8 mm
03:05 AM 47.8°F8.8°C 45.6°F7.6°C 96% 1.0 mph SE1.6 kmh SE 3.0 mph4.8 kmh 30.02 in1016.6 mb 0.00 in0.0 mm 0.00 in0.0 mm 0.03 in0.8 mm
03:07 AM 47.8°F8.8°C 45.6°F7.6°C 96% 1.0 mph SE1.6 kmh SE 3.0 mph4.8 kmh 30.02 in1016.6 mb 0.00 in0.0 mm 0.00 in0.0 mm 0.03 in0.8 mm
03:09 AM 47.7°F8.7°C 45.5°F7.5°C 96% 1.0 mph SE1.6 kmh SE 3.0 mph4.8 kmh 30.02 in1016.6 mb 0.00 in0.0 mm 0.00 in0.0 mm 0.03 in0.8 mm
03:11 AM 47.7°F8.7°C 45.5°F7.5°C 96% 1.0 mph SE1.6 kmh SE 4.0 mph6.4 kmh 30.02 in1016.6 mb 0.00 in0.0 mm 0.00 in0.0 mm 0.03 in0.8 mm
03:13 AM 47.7°F8.7°C 45.5°F7.5°C 96% Calm Calm 4.0 mph6.4 kmh 30.02 in1016.6 mb 0.00 in0.0 mm 0.00 in0.0 mm 0.03 in0.8 mm
03:15 AM 47.7°F8.7°C 45.5°F7.5°C 96% 2.0 mph S3.2 kmh S 4.0 mph6.4 kmh 30.02 in1016.6 mb 0.00 in0.0 mm 0.00 in0.0 mm 0.03 in0.8 mm
03:17 AM 47.7°F8.7°C 45.5°F7.5°C 96% Calm Calm 4.0 mph6.4 kmh 30.02 in1016.6 mb 0.00 in0.0 mm 0.00 in0.0 mm 0.03 in0.8 mm
03:19 AM 47.6°F8.7°C 45.4°F7.4°C 96% Calm Calm -- 30.02 in1016.6 mb 0.00 in0.0 mm 0.00 in0.0 mm 0.03 in0.8 mm
03:21 AM 47.5°F8.6°C 45.3°F7.4°C 96% 1.0 mph SSE1.6 kmh SSE 2.0 mph3.2 kmh 30.02 in1016.6 mb 0.00 in0.0 mm 0.00 in0.0 mm 0.03 in0.8 mm
03:23 AM 47.5°F8.6°C 45.3°F7.4°C 96% Calm Calm -- 30.02 in1016.6 mb 0.00 in0.0 mm 0.00 in0.0 mm 0.03 in0.8 mm
03:25 AM 47.4°F8.6°C 45.2°F7.3°C 96% 1.0 mph SSE1.6 kmh SSE 1.0 mph1.6 kmh 30.02 in1016.6 mb 0.00 in0.0 mm 0.00 in0.0 mm 0.03 in0.8 mm
03:27 AM 47.3°F8.5°C 45.1°F7.3°C 96% Calm Calm 1.0 mph1.6 kmh 30.02 in1016.6 mb 0.00 in0.0 mm 0.00 in0.0 mm 0.03 in0.8 mm
03:29 AM 47.3°F8.5°C 45.1°F7.3°C 96% Calm Calm 2.0 mph3.2 kmh 30.02 in1016.6 mb 0.00 in0.0 mm 0.00 in0.0 mm 0.03 in0.8 mm
03:31 AM 47.2°F8.4°C 45.0°F7.2°C 96% Calm Calm 1.0 mph1.6 kmh 30.02 in1016.6 mb 0.00 in0.0 mm 0.00 in0.0 mm 0.03 in0.8 mm
03:33 AM 47.2°F8.4°C 45.0°F7.2°C 96% Calm Calm -- 30.02 in1016.6 mb 0.00 in0.0 mm 0.00 in0.0 mm 0.03 in0.8 mm
03:35 AM 47.1°F8.4°C 44.9°F7.2°C 96% Calm Calm 2.0 mph3.2 kmh 30.02 in1016.6 mb 0.00 in0.0 mm 0.00 in0.0 mm 0.03 in0.8 mm
03:37 AM 47.1°F8.4°C 44.9°F7.2°C 96% Calm Calm -- 30.02 in1016.6 mb 0.00 in0.0 mm 0.00 in0.0 mm 0.03 in0.8 mm
03:39 AM 47.1°F8.4°C 44.9°F7.2°C 96% Calm Calm 1.0 mph1.6 kmh 30.02 in1016.6 mb 0.00 in0.0 mm 0.00 in0.0 mm 0.03 in0.8 mm
03:41 AM 47.0°F8.3°C 44.8°F7.1°C 96% Calm Calm 2.0 mph3.2 kmh 30.02 in1016.6 mb 0.00 in0.0 mm 0.00 in0.0 mm 0.03 in0.8 mm
03:43 AM 47.0°F8.3°C 44.8°F7.1°C 96% 1.0 mph SSW1.6 kmh SSW 4.0 mph6.4 kmh 30.02 in1016.6 mb 0.00 in0.0 mm 0.00 in0.0 mm 0.03 in0.8 mm
03:45 AM 46.9°F8.3°C 44.7°F7.1°C 96% 2.0 mph SW3.2 kmh SW 4.0 mph6.4 kmh 30.02 in1016.6 mb 0.00 in0.0 mm 0.00 in0.0 mm 0.03 in0.8 mm
03:47 AM 46.9°F8.3°C 44.7°F7.1°C 96% Calm Calm 4.0 mph6.4 kmh 30.02 in1016.6 mb 0.00 in0.0 mm 0.00 in0.0 mm 0.03 in0.8 mm
03:49 AM 46.9°F8.3°C 44.7°F7.1°C 96% Calm Calm 4.0 mph6.4 kmh 30.02 in1016.6 mb 0.00 in0.0 mm 0.00 in0.0 mm 0.03 in0.8 mm
03:51 AM 46.9°F8.3°C 44.7°F7.1°C 96% Calm Calm -- 30.01 in1016.3 mb 0.00 in0.0 mm 0.00 in0.0 mm 0.03 in0.8 mm
03:53 AM 46.9°F8.3°C 44.7°F7.1°C 96% Calm Calm -- 30.02 in1016.6 mb 0.00 in0.0 mm 0.00 in0.0 mm 0.03 in0.8 mm
03:55 AM 46.9°F8.3°C 44.7°F7.1°C 96% 1.0 mph SW1.6 kmh SW 2.0 mph3.2 kmh 30.01 in1016.3 mb 0.00 in0.0 mm 0.00 in0.0 mm 0.03 in0.8 mm
03:57 AM 46.8°F8.2°C 44.6°F7.0°C 96% Calm Calm 2.0 mph3.2 kmh 30.01 in1016.3 mb 0.00 in0.0 mm 0.00 in0.0 mm 0.03 in0.8 mm
03:59 AM 46.8°F8.2°C 44.6°F7.0°C 96% 1.0 mph SW1.6 kmh SW 2.0 mph3.2 kmh 30.01 in1016.3 mb 0.00 in0.0 mm 0.00 in0.0 mm 0.03 in0.8 mm
04:01 AM 46.8°F8.2°C 44.6°F7.0°C 96% Calm Calm 2.0 mph3.2 kmh 30.01 in1016.3 mb 0.00 in0.0 mm 0.00 in0.0 mm 0.03 in0.8 mm
04:03 AM 46.8°F8.2°C 44.6°F7.0°C 96% Calm Calm -- 30.01 in1016.3 mb 0.00 in0.0 mm 0.00 in0.0 mm 0.03 in0.8 mm
04:05 AM 46.8°F8.2°C 44.6°F7.0°C 96% Calm Calm 2.0 mph3.2 kmh 30.01 in1016.3 mb 0.00 in0.0 mm 0.00 in0.0 mm 0.03 in0.8 mm
04:07 AM 46.7°F8.2°C 44.5°F6.9°C 96% Calm Calm -- 30.01 in1016.3 mb 0.00 in0.0 mm 0.00 in0.0 mm 0.03 in0.8 mm
04:09 AM 46.7°F8.2°C 44.5°F6.9°C 96% 1.0 mph SW1.6 kmh SW 2.0 mph3.2 kmh 30.01 in1016.3 mb 0.00 in0.0 mm 0.00 in0.0 mm 0.03 in0.8 mm
04:11 AM 46.7°F8.2°C 44.5°F6.9°C 96% Calm Calm 2.0 mph3.2 kmh 30.01 in1016.3 mb 0.00 in0.0 mm 0.00 in0.0 mm 0.03 in0.8 mm
04:13 AM 46.7°F8.2°C 44.5°F6.9°C 96% Calm Calm 2.0 mph3.2 kmh 30.01 in1016.3 mb 0.00 in0.0 mm 0.00 in0.0 mm 0.03 in0.8 mm
04:15 AM 46.6°F8.1°C 44.4°F6.9°C 96% Calm Calm -- 30.01 in1016.3 mb 0.00 in0.0 mm 0.00 in0.0 mm 0.03 in0.8 mm
04:17 AM 46.6°F8.1°C 44.4°F6.9°C 96% Calm Calm -- 30.01 in1016.3 mb 0.00 in0.0 mm 0.00 in0.0 mm 0.03 in0.8 mm
04:19 AM 46.6°F8.1°C 44.4°F6.9°C 96% 1.0 mph SSW1.6 kmh SSW 2.0 mph3.2 kmh 30.01 in1016.3 mb 0.00 in0.0 mm 0.00 in0.0 mm 0.03 in0.8 mm
04:21 AM 46.5°F8.1°C 44.3°F6.8°C 96% 1.0 mph SSW1.6 kmh SSW 2.0 mph3.2 kmh 30.01 in1016.3 mb 0.00 in0.0 mm 0.00 in0.0 mm 0.03 in0.8 mm
04:23 AM 46.5°F8.1°C 44.3°F6.8°C 96% Calm Calm 2.0 mph3.2 kmh 30.01 in1016.3 mb 0.00 in0.0 mm 0.00 in0.0 mm 0.03 in0.8 mm
04:25 AM 46.5°F8.1°C 44.3°F6.8°C 96% Calm Calm -- 30.01 in1016.3 mb 0.00 in0.0 mm 0.00 in0.0 mm 0.03 in0.8 mm
04:27 AM 46.5°F8.1°C 44.3°F6.8°C 96% Calm Calm -- 30.01 in1016.3 mb 0.00 in0.0 mm 0.00 in0.0 mm 0.03 in0.8 mm
04:29 AM 46.5°F8.1°C 44.3°F6.8°C 96% Calm Calm 2.0 mph3.2 kmh 30.01 in1016.3 mb 0.00 in0.0 mm 0.00 in0.0 mm 0.03 in0.8 mm
04:31 AM 46.4°F8.0°C 44.2°F6.8°C 96% Calm Calm 2.0 mph3.2 kmh 30.01 in1016.3 mb 0.00 in0.0 mm 0.00 in0.0 mm 0.03 in0.8 mm
04:33 AM 46.4°F8.0°C 44.2°F6.8°C 96% Calm Calm -- 30.01 in1016.3 mb 0.00 in0.0 mm 0.00 in0.0 mm 0.03 in0.8 mm
04:35 AM 46.3°F7.9°C 44.1°F6.7°C 96% Calm Calm -- 30.01 in1016.3 mb 0.00 in0.0 mm 0.00 in0.0 mm 0.03 in0.8 mm
04:37 AM 46.3°F7.9°C 44.1°F6.7°C 96% Calm Calm -- 30.00 in1015.9 mb 0.00 in0.0 mm 0.00 in0.0 mm 0.03 in0.8 mm
04:39 AM 46.3°F7.9°C 44.1°F6.7°C 96% Calm Calm -- 30.01 in1016.3 mb 0.00 in0.0 mm 0.00 in0.0 mm 0.03 in0.8 mm
04:41 AM 46.3°F7.9°C 44.1°F6.7°C 96% Calm Calm -- 30.01 in1016.3 mb 0.00 in0.0 mm 0.00 in0.0 mm 0.03 in0.8 mm
04:43 AM 46.2°F7.9°C 44.0°F6.7°C 96% Calm Calm -- 30.01 in1016.3 mb 0.00 in0.0 mm 0.00 in0.0 mm 0.03 in0.8 mm
04:45 AM 46.2°F7.9°C 44.0°F6.7°C 96% Calm Calm -- 30.01 in1016.3 mb 0.00 in0.0 mm 0.00 in0.0 mm 0.03 in0.8 mm
04:47 AM 46.2°F7.9°C 44.0°F6.7°C 96% Calm Calm -- 30.01 in1016.3 mb 0.00 in0.0 mm 0.00 in0.0 mm 0.03 in0.8 mm
04:49 AM 46.2°F7.9°C 44.0°F6.7°C 96% Calm Calm -- 30.01 in1016.3 mb 0.00 in0.0 mm 0.00 in0.0 mm 0.03 in0.8 mm
04:51 AM 46.1°F7.8°C 43.9°F6.6°C 96% Calm Calm -- 30.01 in1016.3 mb 0.00 in0.0 mm 0.00 in0.0 mm 0.03 in0.8 mm
04:53 AM 46.1°F7.8°C 43.9°F6.6°C 96% Calm Calm -- 30.01 in1016.3 mb 0.00 in0.0 mm 0.00 in0.0 mm 0.03 in0.8 mm
04:55 AM 46.1°F7.8°C 43.9°F6.6°C 96% Calm Calm -- 30.01 in1016.3 mb 0.00 in0.0 mm 0.00 in0.0 mm 0.03 in0.8 mm
04:57 AM 46.1°F7.8°C 43.9°F6.6°C 96% Calm Calm -- 30.01 in1016.3 mb 0.00 in0.0 mm 0.00 in0.0 mm 0.03 in0.8 mm
04:59 AM 46.1°F7.8°C 43.9°F6.6°C 96% Calm Calm -- 30.00 in1015.9 mb 0.00 in0.0 mm 0.00 in0.0 mm 0.03 in0.8 mm
05:01 AM 46.1°F7.8°C 43.9°F6.6°C 96% Calm Calm -- 30.00 in1015.9 mb 0.00 in0.0 mm 0.00 in0.0 mm 0.03 in0.8 mm
05:03 AM 46.0°F7.8°C 43.8°F6.6°C 96% Calm Calm -- 30.00 in1015.9 mb 0.00 in0.0 mm 0.00 in0.0 mm 0.03 in0.8 mm
05:05 AM 46.0°F7.8°C 43.8°F6.6°C 96% Calm Calm -- 30.00 in1015.9 mb 0.00 in0.0 mm 0.00 in0.0 mm 0.03 in0.8 mm
05:07 AM 46.0°F7.8°C 43.8°F6.6°C 96% Calm Calm -- 30.00 in1015.9 mb 0.00 in0.0 mm 0.00 in0.0 mm 0.03 in0.8 mm
05:09 AM 46.0°F7.8°C 43.8°F6.6°C 96% Calm Calm -- 30.00 in1015.9 mb 0.00 in0.0 mm 0.00 in0.0 mm 0.03 in0.8 mm
05:11 AM 45.9°F7.7°C 43.7°F6.5°C 96% 1.0 mph SSW1.6 kmh SSW 2.0 mph3.2 kmh 30.00 in1015.9 mb 0.00 in0.0 mm 0.00 in0.0 mm 0.03 in0.8 mm
05:13 AM 45.9°F7.7°C 43.7°F6.5°C 96% Calm Calm 2.0 mph3.2 kmh 30.00 in1015.9 mb 0.00 in0.0 mm 0.00 in0.0 mm 0.03 in0.8 mm
05:15 AM 45.9°F7.7°C 43.7°F6.5°C 96% Calm Calm 2.0 mph3.2 kmh 30.00 in1015.9 mb 0.00 in0.0 mm 0.00 in0.0 mm 0.03 in0.8 mm
05:17 AM 45.9°F7.7°C 43.7°F6.5°C 96% Calm Calm 2.0 mph3.2 kmh 30.00 in1015.9 mb 0.00 in0.0 mm 0.00 in0.0 mm 0.03 in0.8 mm
05:19 AM 45.8°F7.7°C 43.6°F6.4°C 96% Calm Calm 2.0 mph3.2 kmh 30.00 in1015.9 mb 0.00 in0.0 mm 0.00 in0.0 mm 0.03 in0.8 mm
05:21 AM 45.8°F7.7°C 43.6°F6.4°C 96% 1.0 mph S1.6 kmh S 2.0 mph3.2 kmh 30.00 in1015.9 mb 0.00 in0.0 mm 0.00 in0.0 mm 0.03 in0.8 mm
05:23 AM 45.8°F7.7°C 43.6°F6.4°C 96% Calm Calm 2.0 mph3.2 kmh 30.00 in1015.9 mb 0.00 in0.0 mm 0.00 in0.0 mm 0.03 in0.8 mm
05:25 AM 45.8°F7.7°C 43.6°F6.4°C 96% Calm Calm 1.0 mph1.6 kmh 30.00 in1015.9 mb 0.00 in0.0 mm 0.00 in0.0 mm 0.03 in0.8 mm
05:27 AM 45.8°F7.7°C 43.6°F6.4°C 96% Calm Calm 3.0 mph4.8 kmh 30.00 in1015.9 mb 0.00 in0.0 mm 0.00 in0.0 mm 0.03 in0.8 mm
05:29 AM 45.7°F7.6°C 43.5°F6.4°C 96% Calm Calm -- 30.00 in1015.9 mb 0.00 in0.0 mm 0.00 in0.0 mm 0.03 in0.8 mm
05:31 AM 45.7°F7.6°C 43.5°F6.4°C 96% Calm Calm -- 30.00 in1015.9 mb 0.00 in0.0 mm 0.00 in0.0 mm 0.03 in0.8 mm
05:33 AM 45.6°F7.6°C 43.4°F6.3°C 96% 1.0 mph SW1.6 kmh SW 1.0 mph1.6 kmh 30.00 in1015.9 mb 0.00 in0.0 mm 0.00 in0.0 mm 0.03 in0.8 mm
05:35 AM 45.6°F7.6°C 43.4°F6.3°C 96% Calm Calm 2.0 mph3.2 kmh 30.00 in1015.9 mb 0.00 in0.0 mm 0.00 in0.0 mm 0.03 in0.8 mm
05:37 AM 45.6°F7.6°C 43.4°F6.3°C 96% Calm Calm 1.0 mph1.6 kmh 30.00 in1015.9 mb 0.00 in0.0 mm 0.00 in0.0 mm 0.03 in0.8 mm
05:39 AM 45.6°F7.6°C 43.4°F6.3°C 96% Calm Calm -- 30.00 in1015.9 mb 0.00 in0.0 mm 0.00 in0.0 mm 0.03 in0.8 mm
05:41 AM 45.5°F7.5°C 43.3°F6.3°C 96% Calm Calm -- 30.00 in1015.9 mb 0.00 in0.0 mm 0.00 in0.0 mm 0.03 in0.8 mm
05:43 AM 45.5°F7.5°C 43.3°F6.3°C 96% Calm Calm -- 30.00 in1015.9 mb 0.00 in0.0 mm 0.00 in0.0 mm 0.03 in0.8 mm
05:45 AM 45.4°F7.4°C 43.2°F6.2°C 96% Calm Calm 1.0 mph1.6 kmh 30.00 in1015.9 mb 0.00 in0.0 mm 0.00 in0.0 mm 0.03 in0.8 mm
05:47 AM 45.4°F7.4°C 43.2°F6.2°C 96% Calm Calm -- 30.00 in1015.9 mb 0.00 in0.0 mm 0.00 in0.0 mm 0.03 in0.8 mm
05:49 AM 45.4°F7.4°C 43.2°F6.2°C 96% Calm Calm 1.0 mph1.6 kmh 30.00 in1015.9 mb 0.00 in0.0 mm 0.00 in0.0 mm 0.03 in0.8 mm
05:51 AM 45.4°F7.4°C 43.2°F6.2°C 96% Calm Calm 3.0 mph4.8 kmh 30.00 in1015.9 mb 0.00 in0.0 mm 0.00 in0.0 mm 0.03 in0.8 mm
05:53 AM 45.3°F7.4°C 43.1°F6.2°C 96% 1.0 mph SSW1.6 kmh SSW 3.0 mph4.8 kmh 30.00 in1015.9 mb 0.00 in0.0 mm 0.00 in0.0 mm 0.03 in0.8 mm
05:55 AM 45.3°F7.4°C 43.1°F6.2°C 96% Calm Calm 3.0 mph4.8 kmh 30.00 in1015.9 mb 0.00 in0.0 mm 0.00 in0.0 mm 0.03 in0.8 mm
05:57 AM 45.2°F7.3°C 43.0°F6.1°C 96% 1.0 mph SE1.6 kmh SE 3.0 mph4.8 kmh 30.00 in1015.9 mb 0.00 in0.0 mm 0.00 in0.0 mm 0.03 in0.8 mm
05:59 AM 45.3°F7.4°C 43.1°F6.2°C 96% 1.0 mph SE1.6 kmh SE 3.0 mph4.8 kmh 29.99 in1015.6 mb 0.00 in0.0 mm 0.00 in0.0 mm 0.03 in0.8 mm
06:01 AM 45.3°F7.4°C 43.1°F6.2°C 96% Calm Calm 3.0 mph4.8 kmh 29.99 in1015.6 mb 0.00 in0.0 mm 0.00 in0.0 mm 0.03 in0.8 mm
06:03 AM 45.3°F7.4°C 43.1°F6.2°C 96% 1.0 mph SE1.6 kmh SE 3.0 mph4.8 kmh 29.99 in1015.6 mb 0.00 in0.0 mm 0.00 in0.0 mm 0.03 in0.8 mm
06:05 AM 45.3°F7.4°C 43.1°F6.2°C 96% 1.0 mph SE1.6 kmh SE 3.0 mph4.8 kmh 29.99 in1015.6 mb 0.00 in0.0 mm 0.00 in0.0 mm 0.03 in0.8 mm
06:07 AM 45.3°F7.4°C 43.1°F6.2°C 96% Calm Calm 3.0 mph4.8 kmh 29.99 in1015.6 mb 0.00 in0.0 mm 0.00 in0.0 mm 0.03 in0.8 mm
06:09 AM 45.2°F7.3°C 43.0°F6.1°C 96% Calm Calm 3.0 mph4.8 kmh 29.99 in1015.6 mb 0.00 in0.0 mm 0.00 in0.0 mm 0.03 in0.8 mm
06:11 AM 45.2°F7.3°C 43.0°F6.1°C 96% 1.0 mph SE1.6 kmh SE 2.0 mph3.2 kmh 29.99 in1015.6 mb 0.00 in0.0 mm 0.00 in0.0 mm 0.03 in0.8 mm
06:13 AM 45.2°F7.3°C 43.0°F6.1°C 96% 1.0 mph S1.6 kmh S 2.0 mph3.2 kmh 29.99 in1015.6 mb 0.00 in0.0 mm 0.00 in0.0 mm 0.03 in0.8 mm
06:15 AM 45.1°F7.3°C 42.9°F6.1°C 96% Calm Calm 2.0 mph3.2 kmh 29.99 in1015.6 mb 0.00 in0.0 mm 0.00 in0.0 mm 0.03 in0.8 mm
06:17 AM 45.2°F7.3°C 43.0°F6.1°C 96% Calm Calm 2.0 mph3.2 kmh 29.99 in1015.6 mb 0.00 in0.0 mm 0.00 in0.0 mm 0.03 in0.8 mm
06:19 AM 45.2°F7.3°C 43.0°F6.1°C 96% Calm Calm -- 29.99 in1015.6 mb 0.00 in0.0 mm 0.00 in0.0 mm 0.03 in0.8 mm
06:21 AM 45.2°F7.3°C 43.0°F6.1°C 96% Calm Calm 2.0 mph3.2 kmh 29.99 in1015.6 mb 0.00 in0.0 mm 0.00 in0.0 mm 0.03 in0.8 mm
06:23 AM 45.2°F7.3°C 43.0°F6.1°C 96% Calm Calm -- 29.98 in1015.2 mb 0.00 in0.0 mm 0.00 in0.0 mm 0.03 in0.8 mm
06:25 AM 45.2°F7.3°C 43.0°F6.1°C 96% Calm Calm 2.0 mph3.2 kmh 29.98 in1015.2 mb 0.00 in0.0 mm 0.00 in0.0 mm 0.03 in0.8 mm
06:27 AM 45.3°F7.4°C 43.1°F6.2°C 96% 1.0 mph SSE1.6 kmh SSE 2.0 mph3.2 kmh 29.98 in1015.2 mb 0.00 in0.0 mm 0.00 in0.0 mm 0.03 in0.8 mm
06:29 AM 45.3°F7.4°C 43.1°F6.2°C 96% 1.0 mph SSE1.6 kmh SSE 2.0 mph3.2 kmh 29.98 in1015.2 mb 0.00 in0.0 mm 0.00 in0.0 mm 0.03 in0.8 mm
06:31 AM 45.3°F7.4°C 43.1°F6.2°C 96% Calm Calm 3.0 mph4.8 kmh 29.99 in1015.6 mb 0.00 in0.0 mm 0.00 in0.0 mm 0.03 in0.8 mm
06:33 AM 45.4°F7.4°C 43.2°F6.2°C 96% Calm Calm 3.0 mph4.8 kmh 29.99 in1015.6 mb 0.00 in0.0 mm 0.00 in0.0 mm 0.03 in0.8 mm
06:35 AM 45.4°F7.4°C 43.2°F6.2°C 96% Calm Calm -- 29.99 in1015.6 mb 0.00 in0.0 mm 0.00 in0.0 mm 0.03 in0.8 mm
06:37 AM 45.4°F7.4°C 43.2°F6.2°C 96% Calm Calm -- 29.99 in1015.6 mb 0.00 in0.0 mm 0.00 in0.0 mm 0.03 in0.8 mm
06:39 AM 45.4°F7.4°C 43.2°F6.2°C 96% Calm Calm 1.0 mph1.6 kmh 29.98 in1015.2 mb 0.00 in0.0 mm 0.00 in0.0 mm 0.03 in0.8 mm
06:41 AM 45.3°F7.4°C 43.1°F6.2°C 96% Calm Calm -- 29.98 in1015.2 mb 0.00 in0.0 mm 0.00 in0.0 mm 0.03 in0.8 mm
06:43 AM 45.3°F7.4°C 43.1°F6.2°C 96% Calm Calm -- 29.98 in1015.2 mb 0.00 in0.0 mm 0.00 in0.0 mm 0.03 in0.8 mm
06:45 AM 45.2°F7.3°C 43.0°F6.1°C 96% Calm Calm -- 29.98 in1015.2 mb 0.00 in0.0 mm 0.00 in0.0 mm 0.03 in0.8 mm
06:47 AM 45.2°F7.3°C 43.0°F6.1°C 96% Calm Calm -- 29.98 in1015.2 mb 0.00 in0.0 mm 0.00 in0.0 mm 0.03 in0.8 mm
06:49 AM 45.2°F7.3°C 43.0°F6.1°C 96% Calm Calm -- 29.98 in1015.2 mb 0.00 in0.0 mm 0.00 in0.0 mm 0.03 in0.8 mm
06:51 AM 45.1°F7.3°C 42.9°F6.1°C 96% 2.0 mph SE3.2 kmh SE 3.0 mph4.8 kmh 29.98 in1015.2 mb 0.00 in0.0 mm 0.00 in0.0 mm 0.03 in0.8 mm
06:53 AM 45.1°F7.3°C 42.9°F6.1°C 96% Calm Calm 3.0 mph4.8 kmh 29.98 in1015.2 mb 0.00 in0.0 mm 0.00 in0.0 mm 0.03 in0.8 mm
06:55 AM 45.1°F7.3°C 42.9°F6.1°C 96% Calm Calm 6.0 mph9.7 kmh 29.98 in1015.2 mb 0.00 in0.0 mm 0.00 in0.0 mm 0.03 in0.8 mm
06:57 AM 45.1°F7.3°C 42.9°F6.1°C 96% Calm Calm 6.0 mph9.7 kmh 29.98 in1015.2 mb 0.00 in0.0 mm 0.00 in0.0 mm 0.03 in0.8 mm
06:59 AM 45.1°F7.3°C 42.9°F6.1°C 96% Calm Calm 6.0 mph9.7 kmh 29.98 in1015.2 mb 0.00 in0.0 mm 0.00 in0.0 mm 0.03 in0.8 mm
07:01 AM 45.0°F7.2°C 42.8°F6.0°C 96% Calm Calm 6.0 mph9.7 kmh 29.98 in1015.2 mb 0.00 in0.0 mm 0.00 in0.0 mm 0.03 in0.8 mm
07:03 AM 45.0°F7.2°C 42.8°F6.0°C 96% 2.0 mph S3.2 kmh S 6.0 mph9.7 kmh 29.98 in1015.2 mb 0.00 in0.0 mm 0.00 in0.0 mm 0.03 in0.8 mm
07:05 AM 45.0°F7.2°C 42.8°F6.0°C 96% Calm Calm 6.0 mph9.7 kmh 29.98 in1015.2 mb 0.00 in0.0 mm 0.00 in0.0 mm 0.03 in0.8 mm
07:07 AM 44.9°F7.2°C 42.7°F5.9°C 96% 1.0 mph SE1.6 kmh SE 6.0 mph9.7 kmh 29.97 in1014.9 mb 0.00 in0.0 mm 0.00 in0.0 mm 0.03 in0.8 mm
07:09 AM 44.9°F7.2°C 42.7°F5.9°C 96% 1.0 mph S1.6 kmh S 6.0 mph9.7 kmh 29.97 in1014.9 mb 0.00 in0.0 mm 0.00 in0.0 mm 0.03 in0.8 mm
07:11 AM 45.0°F7.2°C 42.8°F6.0°C 96% 2.0 mph SE3.2 kmh SE 6.0 mph9.7 kmh 29.97 in1014.9 mb 0.00 in0.0 mm 0.00 in0.0 mm 0.03 in0.8 mm
07:13 AM 45.0°F7.2°C 42.8°F6.0°C 96% Calm Calm 6.0 mph9.7 kmh 29.97 in1014.9 mb 0.00 in0.0 mm 0.00 in0.0 mm 0.03 in0.8 mm
07:15 AM 44.9°F7.2°C 42.7°F5.9°C 96% 2.0 mph SSE3.2 kmh SSE 6.0 mph9.7 kmh 29.97 in1014.9 mb 0.00 in0.0 mm 0.00 in0.0 mm 0.03 in0.8 mm
07:17 AM 44.9°F7.2°C 42.7°F5.9°C 96% 2.0 mph SE3.2 kmh SE 6.0 mph9.7 kmh 29.97 in1014.9 mb 0.00 in0.0 mm 0.00 in0.0 mm 0.03 in0.8 mm
07:19 AM 44.9°F7.2°C 42.7°F5.9°C 96% 2.0 mph SSW3.2 kmh SSW 6.0 mph9.7 kmh 29.97 in1014.9 mb 0.00 in0.0 mm 0.00 in0.0 mm 0.03 in0.8 mm
07:21 AM 44.8°F7.1°C 42.6°F5.9°C 96% 1.0 mph S1.6 kmh S 6.0 mph9.7 kmh 29.97 in1014.9 mb 0.00 in0.0 mm 0.00 in0.0 mm 0.03 in0.8 mm
07:23 AM 44.8°F7.1°C 42.6°F5.9°C 96% 1.0 mph S1.6 kmh S 6.0 mph9.7 kmh 29.97 in1014.9 mb 0.00 in0.0 mm 0.00 in0.0 mm 0.03 in0.8 mm
07:25 AM 44.7°F7.1°C 42.5°F5.8°C 96% 1.0 mph S1.6 kmh S 4.0 mph6.4 kmh 29.97 in1014.9 mb 0.00 in0.0 mm 0.00 in0.0 mm 0.03 in0.8 mm
07:27 AM 44.7°F7.1°C 42.5°F5.8°C 96% 2.0 mph S3.2 kmh S 4.0 mph6.4 kmh 29.97 in1014.9 mb 0.00 in0.0 mm 0.00 in0.0 mm 0.03 in0.8 mm
07:29 AM 44.7°F7.1°C 42.5°F5.8°C 96% 1.0 mph SSE1.6 kmh SSE 4.0 mph6.4 kmh 29.97 in1014.9 mb 0.00 in0.0 mm 0.00 in0.0 mm 0.03 in0.8 mm
07:31 AM 44.7°F7.1°C 42.5°F5.8°C 96% 2.0 mph SSE3.2 kmh SSE 4.0 mph6.4 kmh 29.97 in1014.9 mb 0.00 in0.0 mm 0.00 in0.0 mm 0.03 in0.8 mm
07:33 AM 44.6°F7.0°C 42.4°F5.8°C 96% 1.0 mph SSE1.6 kmh SSE 4.0 mph6.4 kmh 29.97 in1014.9 mb 0.00 in0.0 mm 0.00 in0.0 mm 0.03 in0.8 mm
07:35 AM 44.6°F7.0°C 42.4°F5.8°C 96% 1.0 mph SSE1.6 kmh SSE 3.0 mph4.8 kmh 29.97 in1014.9 mb 0.00 in0.0 mm 0.00 in0.0 mm 0.03 in0.8 mm
07:37 AM 44.5°F6.9°C 42.3°F5.7°C 96% 1.0 mph ESE1.6 kmh ESE 3.0 mph4.8 kmh 29.97 in1014.9 mb 0.00 in0.0 mm 0.00 in0.0 mm 0.03 in0.8 mm
07:39 AM 44.5°F6.9°C 42.3°F5.7°C 96% 1.0 mph SSE1.6 kmh SSE 3.0 mph4.8 kmh 29.97 in1014.9 mb 0.00 in0.0 mm 0.00 in0.0 mm 0.03 in0.8 mm
07:41 AM 44.5°F6.9°C 42.3°F5.7°C 96% 1.0 mph ENE1.6 kmh ENE 3.0 mph4.8 kmh 29.97 in1014.9 mb 0.00 in0.0 mm 0.00 in0.0 mm 0.03 in0.8 mm
07:43 AM 44.4°F6.9°C 42.2°F5.7°C 96% 2.0 mph SSW3.2 kmh SSW 3.0 mph4.8 kmh 29.97 in1014.9 mb 0.00 in0.0 mm 0.00 in0.0 mm 0.03 in0.8 mm
07:45 AM 44.4°F6.9°C 42.2°F5.7°C 96% Calm Calm 3.0 mph4.8 kmh 29.97 in1014.9 mb 0.00 in0.0 mm 0.00 in0.0 mm 0.03 in0.8 mm
07:47 AM 44.5°F6.9°C 42.3°F5.7°C 96% Calm Calm 3.0 mph4.8 kmh 29.97 in1014.9 mb 0.00 in0.0 mm 0.00 in0.0 mm 0.03 in0.8 mm
07:49 AM 44.5°F6.9°C 42.3°F5.7°C 96% 2.0 mph SE3.2 kmh SE 3.0 mph4.8 kmh 29.97 in1014.9 mb 0.00 in0.0 mm 0.00 in0.0 mm 0.03 in0.8 mm
07:51 AM 44.6°F7.0°C 42.4°F5.8°C 96% Calm Calm 3.0 mph4.8 kmh 29.97 in1014.9 mb 0.00 in0.0 mm 0.00 in0.0 mm 0.03 in0.8 mm
07:53 AM 44.7°F7.1°C 42.5°F5.8°C 96% 2.0 mph SE3.2 kmh SE 3.0 mph4.8 kmh 29.96 in1014.6 mb 0.00 in0.0 mm 0.00 in0.0 mm 0.03 in0.8 mm
07:55 AM 44.7°F7.1°C 42.5°F5.8°C 96% 1.0 mph SE1.6 kmh SE 3.0 mph4.8 kmh 29.96 in1014.6 mb 0.00 in0.0 mm 0.00 in0.0 mm 0.03 in0.8 mm
07:57 AM 44.8°F7.1°C 42.9°F6.1°C 97% Calm Calm 3.0 mph4.8 kmh 29.96 in1014.6 mb 0.00 in0.0 mm 0.00 in0.0 mm 0.03 in0.8 mm
07:59 AM 44.8°F7.1°C 42.9°F6.1°C 97% Calm Calm -- 29.96 in1014.6 mb 0.00 in0.0 mm 0.00 in0.0 mm 0.03 in0.8 mm
08:01 AM 44.8°F7.1°C 42.9°F6.1°C 97% 1.0 mph SW1.6 kmh SW 2.0 mph3.2 kmh 29.96 in1014.6 mb 0.00 in0.0 mm 0.00 in0.0 mm 0.03 in0.8 mm
08:03 AM 44.8°F7.1°C 42.9°F6.1°C 97% Calm Calm 2.0 mph3.2 kmh 29.96 in1014.6 mb 0.00 in0.0 mm 0.00 in0.0 mm 0.03 in0.8 mm
08:05 AM 44.9°F7.2°C 43.0°F6.1°C 97% 2.0 mph SE3.2 kmh SE 2.0 mph3.2 kmh 29.96 in1014.6 mb 0.00 in0.0 mm 0.00 in0.0 mm 0.03 in0.8 mm
08:07 AM 44.9°F7.2°C 43.0°F6.1°C 97% Calm Calm 2.0 mph3.2 kmh 29.96 in1014.6 mb 0.00 in0.0 mm 0.00 in0.0 mm 0.03 in0.8 mm
08:09 AM 44.9°F7.2°C 43.0°F6.1°C 97% 1.0 mph SSE1.6 kmh SSE 2.0 mph3.2 kmh 29.96 in1014.6 mb 0.00 in0.0 mm 0.00 in0.0 mm 0.03 in0.8 mm
08:11 AM 44.9°F7.2°C 42.7°F5.9°C 96% 2.0 mph SW3.2 kmh SW 2.0 mph3.2 kmh 29.96 in1014.6 mb 0.00 in0.0 mm 0.00 in0.0 mm 0.03 in0.8 mm
08:13 AM 44.9°F7.2°C 43.0°F6.1°C 97% 2.0 mph ESE3.2 kmh ESE 3.0 mph4.8 kmh 29.96 in1014.6 mb 0.00 in0.0 mm 0.00 in0.0 mm 0.03 in0.8 mm
08:15 AM 44.9°F7.2°C 43.0°F6.1°C 97% Calm Calm 3.0 mph4.8 kmh 29.96 in1014.6 mb 0.00 in0.0 mm 0.00 in0.0 mm 0.03 in0.8 mm
08:17 AM 44.9°F7.2°C 43.0°F6.1°C 97% Calm Calm 3.0 mph4.8 kmh 29.96 in1014.6 mb 0.00 in0.0 mm 0.00 in0.0 mm 0.03 in0.8 mm
08:19 AM 45.0°F7.2°C 43.1°F6.2°C 97% Calm Calm 3.0 mph4.8 kmh 29.96 in1014.6 mb 0.00 in0.0 mm 0.00 in0.0 mm 0.03 in0.8 mm
08:21 AM 45.1°F7.3°C 43.2°F6.2°C 97% Calm Calm 3.0 mph4.8 kmh 29.96 in1014.6 mb 0.00 in0.0 mm 0.00 in0.0 mm 0.03 in0.8 mm
08:25 AM 45.1°F7.3°C 42.9°F6.1°C 96% Calm Calm 3.0 mph4.8 kmh 29.96 in1014.6 mb 0.00 in0.0 mm 0.00 in0.0 mm 0.03 in0.8 mm
08:27 AM 45.1°F7.3°C 42.9°F6.1°C 96% Calm Calm 3.0 mph4.8 kmh 29.96 in1014.6 mb 0.00 in0.0 mm 0.00 in0.0 mm 0.03 in0.8 mm
08:29 AM 45.1°F7.3°C 42.9°F6.1°C 96% 2.0 mph SSE3.2 kmh SSE 4.0 mph6.4 kmh 29.96 in1014.6 mb 0.00 in0.0 mm 0.00 in0.0 mm 0.03 in0.8 mm
08:31 AM 45.1°F7.3°C 42.9°F6.1°C 96% 1.0 mph SSE1.6 kmh SSE 4.0 mph6.4 kmh 29.96 in1014.6 mb 0.00 in0.0 mm 0.00 in0.0 mm 0.03 in0.8 mm
08:33 AM 45.1°F7.3°C 42.9°F6.1°C 96% Calm Calm 4.0 mph6.4 kmh 29.96 in1014.6 mb 0.00 in0.0 mm 0.00 in0.0 mm 0.03 in0.8 mm
08:35 AM 45.2°F7.3°C 43.0°F6.1°C 96% Calm Calm -- 29.96 in1014.6 mb 0.00 in0.0 mm 0.00 in0.0 mm 0.03 in0.8 mm
08:37 AM 45.2°F7.3°C 43.0°F6.1°C 96% 2.0 mph S3.2 kmh S 4.0 mph6.4 kmh 29.96 in1014.6 mb 0.00 in0.0 mm 0.00 in0.0 mm 0.03 in0.8 mm
08:39 AM 45.3°F7.4°C 43.1°F6.2°C 96% 2.0 mph SSE3.2 kmh SSE 5.0 mph8.0 kmh 29.96 in1014.6 mb 0.00 in0.0 mm 0.00 in0.0 mm 0.03 in0.8 mm
08:41 AM 45.3°F7.4°C 43.1°F6.2°C 96% 1.0 mph S1.6 kmh S 5.0 mph8.0 kmh 29.96 in1014.6 mb 0.00 in0.0 mm 0.00 in0.0 mm 0.03 in0.8 mm
08:43 AM 45.4°F7.4°C 43.5°F6.4°C 97% 1.0 mph E1.6 kmh E 5.0 mph8.0 kmh 29.96 in1014.6 mb 0.00 in0.0 mm 0.00 in0.0 mm 0.03 in0.8 mm
08:45 AM 45.4°F7.4°C 43.5°F6.4°C 97% Calm Calm 5.0 mph8.0 kmh 29.96 in1014.6 mb 0.00 in0.0 mm 0.00 in0.0 mm 0.03 in0.8 mm
08:47 AM 45.4°F7.4°C 43.5°F6.4°C 97% Calm Calm 5.0 mph8.0 kmh 29.96 in1014.6 mb 0.00 in0.0 mm 0.00 in0.0 mm 0.03 in0.8 mm
08:49 AM 45.4°F7.4°C 43.5°F6.4°C 97% Calm Calm 5.0 mph8.0 kmh 29.96 in1014.6 mb 0.00 in0.0 mm 0.00 in0.0 mm 0.03 in0.8 mm
08:51 AM 45.4°F7.4°C 43.5°F6.4°C 97% 2.0 mph W3.2 kmh W 5.0 mph8.0 kmh 29.96 in1014.6 mb 0.00 in0.0 mm 0.00 in0.0 mm 0.03 in0.8 mm
08:53 AM 45.4°F7.4°C 43.5°F6.4°C 97% Calm Calm 5.0 mph8.0 kmh 29.96 in1014.6 mb 0.00 in0.0 mm 0.00 in0.0 mm 0.03 in0.8 mm
08:55 AM 45.5°F7.5°C 43.6°F6.4°C 97% 1.0 mph SW1.6 kmh SW 5.0 mph8.0 kmh 29.96 in1014.6 mb 0.00 in0.0 mm 0.00 in0.0 mm 0.03 in0.8 mm
09:03 AM 45.6°F7.6°C 43.7°F6.5°C 97% Calm Calm 5.0 mph8.0 kmh 29.96 in1014.6 mb 0.00 in0.0 mm 0.00 in0.0 mm 0.03 in0.8 mm
09:05 AM 45.7°F7.6°C 43.5°F6.4°C 96% Calm Calm -- 29.96 in1014.6 mb 0.00 in0.0 mm 0.00 in0.0 mm 0.03 in0.8 mm
09:07 AM 45.8°F7.7°C 43.6°F6.4°C 96% Calm Calm 2.0 mph3.2 kmh 29.96 in1014.6 mb 0.00 in0.0 mm 0.00 in0.0 mm 0.03 in0.8 mm
09:09 AM 45.8°F7.7°C 43.6°F6.4°C 96% 4.0 mph SE6.4 kmh SE 6.0 mph9.7 kmh 29.96 in1014.6 mb 0.00 in0.0 mm 0.00 in0.0 mm 0.03 in0.8 mm
09:11 AM 45.9°F7.7°C 43.7°F6.5°C 96% 3.0 mph SE4.8 kmh SE 6.0 mph9.7 kmh 29.96 in1014.6 mb 0.00 in0.0 mm 0.00 in0.0 mm 0.03 in0.8 mm
09:13 AM 45.9°F7.7°C 43.7°F6.5°C 96% 1.0 mph SE1.6 kmh SE 6.0 mph9.7 kmh 29.96 in1014.6 mb 0.00 in0.0 mm 0.00 in0.0 mm 0.03 in0.8 mm
09:15 AM 46.0°F7.8°C 44.1°F6.7°C 97% 5.0 mph SSE8.0 kmh SSE 6.0 mph9.7 kmh 29.96 in1014.6 mb 0.00 in0.0 mm 0.00 in0.0 mm 0.03 in0.8 mm
09:17 AM 46.0°F7.8°C 44.1°F6.7°C 97% 1.0 mph S1.6 kmh S 6.0 mph9.7 kmh 29.96 in1014.6 mb 0.00 in0.0 mm 0.00 in0.0 mm 0.03 in0.8 mm
09:19 AM 46.1°F7.8°C 44.2°F6.8°C 97% 1.0 mph SE1.6 kmh SE 6.0 mph9.7 kmh 29.96 in1014.6 mb 0.00 in0.0 mm 0.00 in0.0 mm 0.03 in0.8 mm
09:21 AM 46.1°F7.8°C 44.2°F6.8°C 97% Calm Calm 6.0 mph9.7 kmh 29.96 in1014.6 mb 0.00 in0.0 mm 0.00 in0.0 mm 0.03 in0.8 mm
09:23 AM 46.1°F7.8°C 44.2°F6.8°C 97% Calm Calm -- 29.96 in1014.6 mb 0.00 in0.0 mm 0.00 in0.0 mm 0.03 in0.8 mm
09:25 AM 46.2°F7.9°C 44.3°F6.8°C 97% 3.0 mph S4.8 kmh S 3.0 mph4.8 kmh 29.96 in1014.6 mb 0.00 in0.0 mm 0.00 in0.0 mm 0.03 in0.8 mm
09:27 AM 46.3°F7.9°C 44.4°F6.9°C 97% Calm Calm 3.0 mph4.8 kmh 29.96 in1014.6 mb 0.00 in0.0 mm 0.00 in0.0 mm 0.03 in0.8 mm
09:29 AM 46.4°F8.0°C 44.2°F6.8°C 96% Calm Calm 3.0 mph4.8 kmh 29.96 in1014.6 mb 0.00 in0.0 mm 0.00 in0.0 mm 0.03 in0.8 mm
09:31 AM 46.4°F8.0°C 44.2°F6.8°C 96% Calm Calm -- 29.96 in1014.6 mb 0.00 in0.0 mm 0.00 in0.0 mm 0.03 in0.8 mm
09:33 AM 46.5°F8.1°C 44.3°F6.8°C 96% 1.0 mph S1.6 kmh S 4.0 mph6.4 kmh 29.96 in1014.6 mb 0.00 in0.0 mm 0.00 in0.0 mm 0.03 in0.8 mm
09:35 AM 46.6°F8.1°C 44.4°F6.9°C 96% Calm Calm 4.0 mph6.4 kmh 29.96 in1014.6 mb 0.00 in0.0 mm 0.00 in0.0 mm 0.03 in0.8 mm
09:37 AM 46.7°F8.2°C 44.8°F7.1°C 97% Calm Calm -- 29.96 in1014.6 mb 0.00 in0.0 mm 0.00 in0.0 mm 0.03 in0.8 mm
09:39 AM 46.8°F8.2°C 44.9°F7.2°C 97% 1.0 mph SSE1.6 kmh SSE 4.0 mph6.4 kmh 29.96 in1014.6 mb 0.00 in0.0 mm 0.00 in0.0 mm 0.03 in0.8 mm
09:41 AM 46.8°F8.2°C 44.6°F7.0°C 96% Calm Calm 4.0 mph6.4 kmh 29.96 in1014.6 mb 0.00 in0.0 mm 0.00 in0.0 mm 0.03 in0.8 mm
09:43 AM 46.9°F8.3°C 44.7°F7.1°C 96% Calm Calm 4.0 mph6.4 kmh 29.97 in1014.9 mb 0.00 in0.0 mm 0.00 in0.0 mm 0.03 in0.8 mm
09:45 AM 47.0°F8.3°C 44.8°F7.1°C 96% 1.0 mph S1.6 kmh S 4.0 mph6.4 kmh 29.97 in1014.9 mb 0.00 in0.0 mm 0.00 in0.0 mm 0.03 in0.8 mm
09:47 AM 47.1°F8.4°C 45.2°F7.3°C 97% Calm Calm -- 29.97 in1014.9 mb 0.00 in0.0 mm 0.00 in0.0 mm 0.03 in0.8 mm
09:49 AM 47.2°F8.4°C 45.3°F7.4°C 97% Calm Calm -- 29.97 in1014.9 mb 0.00 in0.0 mm 0.00 in0.0 mm 0.03 in0.8 mm
09:51 AM 47.2°F8.4°C 45.3°F7.4°C 97% Calm Calm 1.0 mph1.6 kmh 29.97 in1014.9 mb 0.00 in0.0 mm 0.00 in0.0 mm 0.03 in0.8 mm
09:53 AM 47.3°F8.5°C 45.4°F7.4°C 97% 2.0 mph S3.2 kmh S 2.0 mph3.2 kmh 29.97 in1014.9 mb 0.00 in0.0 mm 0.00 in0.0 mm 0.03 in0.8 mm
09:55 AM 47.3°F8.5°C 45.1°F7.3°C 96% Calm Calm 2.0 mph3.2 kmh 29.97 in1014.9 mb 0.00 in0.0 mm 0.00 in0.0 mm 0.03 in0.8 mm
09:57 AM 47.4°F8.6°C 45.2°F7.3°C 96% Calm Calm -- 29.96 in1014.6 mb 0.00 in0.0 mm 0.00 in0.0 mm 0.03 in0.8 mm
09:59 AM 47.4°F8.6°C 45.2°F7.3°C 96% Calm Calm -- 29.96 in1014.6 mb 0.00 in0.0 mm 0.00 in0.0 mm 0.03 in0.8 mm
10:01 AM 47.4°F8.6°C 45.2°F7.3°C 96% Calm Calm -- 29.96 in1014.6 mb 0.00 in0.0 mm 0.00 in0.0 mm 0.03 in0.8 mm
10:03 AM 47.5°F8.6°C 45.3°F7.4°C 96% Calm Calm -- 29.96 in1014.6 mb 0.00 in0.0 mm 0.00 in0.0 mm 0.03 in0.8 mm
10:05 AM 47.5°F8.6°C 45.3°F7.4°C 96% Calm Calm 1.0 mph1.6 kmh 29.96 in1014.6 mb 0.00 in0.0 mm 0.00 in0.0 mm 0.03 in0.8 mm
10:07 AM 47.5°F8.6°C 45.3°F7.4°C 96% Calm Calm -- 29.96 in1014.6 mb 0.00 in0.0 mm 0.00 in0.0 mm 0.03 in0.8 mm
10:09 AM 47.6°F8.7°C 45.4°F7.4°C 96% 1.0 mph SSW1.6 kmh SSW 2.0 mph3.2 kmh 29.96 in1014.6 mb 0.00 in0.0 mm 0.00 in0.0 mm 0.03 in0.8 mm
10:11 AM 47.6°F8.7°C 45.4°F7.4°C 96% Calm Calm 2.0 mph3.2 kmh 29.96 in1014.6 mb 0.00 in0.0 mm 0.00 in0.0 mm 0.03 in0.8 mm
10:13 AM 47.7°F8.7°C 45.5°F7.5°C 96% Calm Calm -- 29.96 in1014.6 mb 0.00 in0.0 mm 0.00 in0.0 mm 0.03 in0.8 mm
10:15 AM 47.8°F8.8°C 45.6°F7.6°C 96% Calm Calm 2.0 mph3.2 kmh 29.96 in1014.6 mb 0.00 in0.0 mm 0.00 in0.0 mm 0.03 in0.8 mm
10:17 AM 47.8°F8.8°C 45.6°F7.6°C 96% Calm Calm 2.0 mph3.2 kmh 29.96 in1014.6 mb 0.00 in0.0 mm 0.00 in0.0 mm 0.03 in0.8 mm
10:19 AM 47.9°F8.8°C 45.7°F7.6°C 96% 2.0 mph SE3.2 kmh SE 3.0 mph4.8 kmh 29.96 in1014.6 mb 0.00 in0.0 mm 0.00 in0.0 mm 0.03 in0.8 mm
10:21 AM 48.1°F8.9°C 45.9°F7.7°C 96% 2.0 mph S3.2 kmh S 3.0 mph4.8 kmh 29.96 in1014.6 mb 0.00 in0.0 mm 0.00 in0.0 mm 0.03 in0.8 mm
10:23 AM 48.3°F9.1°C 46.1°F7.8°C 96% Calm Calm 3.0 mph4.8 kmh 29.96 in1014.6 mb 0.00 in0.0 mm 0.00 in0.0 mm 0.03 in0.8 mm
10:25 AM 48.4°F9.1°C 46.2°F7.9°C 96% Calm Calm 3.0 mph4.8 kmh 29.96 in1014.6 mb 0.00 in0.0 mm 0.00 in0.0 mm 0.03 in0.8 mm
10:27 AM 48.5°F9.2°C 46.3°F7.9°C 96% Calm Calm 3.0 mph4.8 kmh 29.96 in1014.6 mb 0.00 in0.0 mm 0.00 in0.0 mm 0.03 in0.8 mm
10:29 AM 48.7°F9.3°C 46.5°F8.1°C 96% 2.0 mph SE3.2 kmh SE 2.0 mph3.2 kmh 29.96 in1014.6 mb 0.00 in0.0 mm 0.00 in0.0 mm 0.03 in0.8 mm
10:31 AM 48.9°F9.4°C 46.4°F8.0°C 95% 1.0 mph SE1.6 kmh SE 2.0 mph3.2 kmh 29.96 in1014.6 mb 0.00 in0.0 mm 0.00 in0.0 mm 0.03 in0.8 mm
10:33 AM 49.0°F9.4°C 46.5°F8.1°C 95% 1.0 mph SE1.6 kmh SE 2.0 mph3.2 kmh 29.96 in1014.6 mb 0.00 in0.0 mm 0.00 in0.0 mm 0.03 in0.8 mm
10:35 AM 49.1°F9.5°C 46.6°F8.1°C 95% 2.0 mph ESE3.2 kmh ESE 3.0 mph4.8 kmh 29.95 in1014.2 mb 0.00 in0.0 mm 0.00 in0.0 mm 0.03 in0.8 mm
10:37 AM 49.1°F9.5°C 46.6°F8.1°C 95% 2.0 mph ESE3.2 kmh ESE 5.0 mph8.0 kmh 29.95 in1014.2 mb 0.00 in0.0 mm 0.00 in0.0 mm 0.03 in0.8 mm
10:39 AM 49.1°F9.5°C 46.3°F7.9°C 94% 2.0 mph SE3.2 kmh SE 5.0 mph8.0 kmh 29.96 in1014.6 mb 0.00 in0.0 mm 0.00 in0.0 mm 0.03 in0.8 mm
10:41 AM 49.2°F9.6°C 46.4°F8.0°C 94% Calm Calm 5.0 mph8.0 kmh 29.95 in1014.2 mb 0.00 in0.0 mm 0.00 in0.0 mm 0.03 in0.8 mm
10:43 AM 49.3°F9.6°C 46.5°F8.1°C 94% Calm Calm 5.0 mph8.0 kmh 29.96 in1014.6 mb 0.00 in0.0 mm 0.00 in0.0 mm 0.03 in0.8 mm
10:45 AM 49.4°F9.7°C 46.6°F8.1°C 94% 2.0 mph SE3.2 kmh SE 5.0 mph8.0 kmh 29.95 in1014.2 mb 0.00 in0.0 mm 0.00 in0.0 mm 0.03 in0.8 mm
10:47 AM 49.5°F9.7°C 46.4°F8.0°C 93% 2.0 mph ESE3.2 kmh ESE 6.0 mph9.7 kmh 29.95 in1014.2 mb 0.00 in0.0 mm 0.00 in0.0 mm 0.03 in0.8 mm
10:49 AM 49.7°F9.8°C 46.9°F8.3°C 94% 1.0 mph SE1.6 kmh SE 6.0 mph9.7 kmh 29.95 in1014.2 mb 0.00 in0.0 mm 0.00 in0.0 mm 0.03 in0.8 mm
10:51 AM 49.9°F9.9°C 47.1°F8.4°C 94% 1.0 mph ESE1.6 kmh ESE 6.0 mph9.7 kmh 29.95 in1014.2 mb 0.00 in0.0 mm 0.00 in0.0 mm 0.03 in0.8 mm
10:53 AM 50.1°F10.1°C 47.0°F8.3°C 93% 1.0 mph ESE1.6 kmh ESE 6.0 mph9.7 kmh 29.95 in1014.2 mb 0.00 in0.0 mm 0.00 in0.0 mm 0.03 in0.8 mm
10:55 AM 50.3°F10.2°C 47.2°F8.4°C 93% 2.0 mph SSE3.2 kmh SSE 6.0 mph9.7 kmh 29.95 in1014.2 mb 0.00 in0.0 mm 0.00 in0.0 mm 0.03 in0.8 mm
10:57 AM 50.4°F10.2°C 47.3°F8.5°C 93% 2.0 mph SSE3.2 kmh SSE 6.0 mph9.7 kmh 29.95 in1014.2 mb 0.00 in0.0 mm 0.00 in0.0 mm 0.03 in0.8 mm
10:59 AM 50.5°F10.3°C 47.1°F8.4°C 92% 2.0 mph ESE3.2 kmh ESE 6.0 mph9.7 kmh 29.95 in1014.2 mb 0.00 in0.0 mm 0.00 in0.0 mm 0.03 in0.8 mm
11:01 AM 50.6°F10.3°C 46.9°F8.3°C 91% 1.0 mph SE1.6 kmh SE 6.0 mph9.7 kmh 29.95 in1014.2 mb 0.00 in0.0 mm 0.00 in0.0 mm 0.03 in0.8 mm
11:03 AM 50.8°F10.4°C 47.1°F8.4°C 91% 3.0 mph SSE4.8 kmh SSE 6.0 mph9.7 kmh 29.95 in1014.2 mb 0.00 in0.0 mm 0.00 in0.0 mm 0.03 in0.8 mm
11:05 AM 51.0°F10.6°C 47.0°F8.3°C 90% 3.0 mph SE4.8 kmh SE 6.0 mph9.7 kmh 29.95 in1014.2 mb 0.00 in0.0 mm 0.00 in0.0 mm 0.03 in0.8 mm
11:07 AM 51.2°F10.7°C 46.8°F8.2°C 89% 4.0 mph SE6.4 kmh SE 5.0 mph8.0 kmh 29.95 in1014.2 mb 0.00 in0.0 mm 0.00 in0.0 mm 0.03 in0.8 mm
11:09 AM 51.4°F10.8°C 46.7°F8.2°C 88% Calm Calm 5.0 mph8.0 kmh 29.94 in1013.9 mb 0.00 in0.0 mm 0.00 in0.0 mm 0.03 in0.8 mm
11:11 AM 51.5°F10.8°C 46.8°F8.2°C 88% 3.0 mph SE4.8 kmh SE 6.0 mph9.7 kmh 29.94 in1013.9 mb 0.00 in0.0 mm 0.00 in0.0 mm 0.03 in0.8 mm
11:13 AM 51.8°F11.0°C 46.8°F8.2°C 87% 1.0 mph SE1.6 kmh SE 6.0 mph9.7 kmh 29.94 in1013.9 mb 0.00 in0.0 mm 0.00 in0.0 mm 0.03 in0.8 mm
11:15 AM 52.1°F11.2°C 47.4°F8.6°C 88% 1.0 mph SE1.6 kmh SE 6.0 mph9.7 kmh 29.94 in1013.9 mb 0.00 in0.0 mm 0.00 in0.0 mm 0.03 in0.8 mm
11:17 AM 52.3°F11.3°C 47.6°F8.7°C 88% 1.0 mph E1.6 kmh E 6.0 mph9.7 kmh 29.93 in1013.5 mb 0.00 in0.0 mm 0.00 in0.0 mm 0.03 in0.8 mm
11:19 AM 52.6°F11.4°C 47.6°F8.7°C 87% 1.0 mph E1.6 kmh E 6.0 mph9.7 kmh 29.93 in1013.5 mb 0.00 in0.0 mm 0.00 in0.0 mm 0.03 in0.8 mm
11:21 AM 52.8°F11.6°C 47.5°F8.6°C 86% 3.0 mph SE4.8 kmh SE 6.0 mph9.7 kmh 29.93 in1013.5 mb 0.00 in0.0 mm 0.00 in0.0 mm 0.03 in0.8 mm
11:23 AM 53.1°F11.7°C 48.1°F8.9°C 87% Calm Calm 6.0 mph9.7 kmh 29.93 in1013.5 mb 0.00 in0.0 mm 0.00 in0.0 mm 0.03 in0.8 mm
11:25 AM 53.3°F11.8°C 47.9°F8.8°C 86% 5.0 mph SE8.0 kmh SE 6.0 mph9.7 kmh 29.93 in1013.5 mb 0.00 in0.0 mm 0.00 in0.0 mm 0.03 in0.8 mm
11:27 AM 53.5°F11.9°C 48.1°F8.9°C 86% 5.0 mph SSE8.0 kmh SSE 6.0 mph9.7 kmh 29.92 in1013.2 mb 0.00 in0.0 mm 0.00 in0.0 mm 0.03 in0.8 mm
11:29 AM 53.6°F12.0°C 47.6°F8.7°C 84% 4.0 mph S6.4 kmh S 6.0 mph9.7 kmh 29.92 in1013.2 mb 0.00 in0.0 mm 0.00 in0.0 mm 0.03 in0.8 mm
11:31 AM 53.8°F12.1°C 47.8°F8.8°C 84% 1.0 mph S1.6 kmh S 6.0 mph9.7 kmh 29.92 in1013.2 mb 0.00 in0.0 mm 0.00 in0.0 mm 0.03 in0.8 mm
11:33 AM 54.0°F12.2°C 48.0°F8.9°C 84% 4.0 mph SSE6.4 kmh SSE 7.0 mph11.3 kmh 29.92 in1013.2 mb 0.00 in0.0 mm 0.00 in0.0 mm 0.03 in0.8 mm
11:35 AM 54.2°F12.3°C 47.5°F8.6°C 82% 1.0 mph S1.6 kmh S 7.0 mph11.3 kmh 29.92 in1013.2 mb 0.00 in0.0 mm 0.00 in0.0 mm 0.03 in0.8 mm
11:37 AM 54.4°F12.4°C 47.7°F8.7°C 82% 4.0 mph W6.4 kmh W 7.0 mph11.3 kmh 29.92 in1013.2 mb 0.00 in0.0 mm 0.00 in0.0 mm 0.03 in0.8 mm
11:39 AM 54.6°F12.6°C 48.2°F9.0°C 83% Calm Calm 7.0 mph11.3 kmh 29.92 in1013.2 mb 0.00 in0.0 mm 0.00 in0.0 mm 0.03 in0.8 mm
11:41 AM 54.8°F12.7°C 47.7°F8.7°C 81% 1.0 mph SSE1.6 kmh SSE 7.0 mph11.3 kmh 29.92 in1013.2 mb 0.00 in0.0 mm 0.00 in0.0 mm 0.03 in0.8 mm
11:43 AM 54.9°F12.7°C 47.8°F8.8°C 81% 2.0 mph S3.2 kmh S 7.0 mph11.3 kmh 29.92 in1013.2 mb 0.00 in0.0 mm 0.00 in0.0 mm 0.03 in0.8 mm
11:45 AM 55.1°F12.8°C 48.4°F9.1°C 82% 3.0 mph E4.8 kmh E 7.0 mph11.3 kmh 29.91 in1012.9 mb 0.00 in0.0 mm 0.00 in0.0 mm 0.03 in0.8 mm
11:47 AM 55.3°F12.9°C 48.6°F9.2°C 82% 2.0 mph SSW3.2 kmh SSW 7.0 mph11.3 kmh 29.91 in1012.9 mb 0.00 in0.0 mm 0.00 in0.0 mm 0.03 in0.8 mm
11:49 AM 55.4°F13.0°C 48.3°F9.1°C 81% 1.0 mph SSE1.6 kmh SSE 7.0 mph11.3 kmh 29.91 in1012.9 mb 0.00 in0.0 mm 0.00 in0.0 mm 0.03 in0.8 mm
11:51 AM 55.6°F13.1°C 48.8°F9.3°C 82% 4.0 mph W6.4 kmh W 7.0 mph11.3 kmh 29.91 in1012.9 mb 0.00 in0.0 mm 0.00 in0.0 mm 0.03 in0.8 mm
11:53 AM 55.8°F13.2°C 48.3°F9.1°C 80% 1.0 mph SW1.6 kmh SW 7.0 mph11.3 kmh 29.91 in1012.9 mb 0.00 in0.0 mm 0.00 in0.0 mm 0.03 in0.8 mm
11:55 AM 56.0°F13.3°C 48.5°F9.2°C 80% 3.0 mph SSW4.8 kmh SSW 9.0 mph14.5 kmh 29.91 in1012.9 mb 0.00 in0.0 mm 0.00 in0.0 mm 0.03 in0.8 mm
11:57 AM 56.2°F13.4°C 48.7°F9.3°C 80% 1.0 mph S1.6 kmh S 9.0 mph14.5 kmh 29.90 in1012.5 mb 0.00 in0.0 mm 0.00 in0.0 mm 0.03 in0.8 mm
11:59 AM 56.4°F13.6°C 48.9°F9.4°C 80% 4.0 mph SW6.4 kmh SW 9.0 mph14.5 kmh 29.90 in1012.5 mb 0.00 in0.0 mm 0.00 in0.0 mm 0.03 in0.8 mm
12:01 PM 56.5°F13.6°C 47.9°F8.8°C 77% 4.0 mph S6.4 kmh S 9.0 mph14.5 kmh 29.90 in1012.5 mb 0.00 in0.0 mm 0.00 in0.0 mm 0.03 in0.8 mm
12:03 PM 56.7°F13.7°C 48.1°F8.9°C 77% 2.0 mph SE3.2 kmh SE 9.0 mph14.5 kmh 29.90 in1012.5 mb 0.00 in0.0 mm 0.00 in0.0 mm 0.03 in0.8 mm
12:05 PM 56.9°F13.8°C 48.0°F8.9°C 76% 1.0 mph W1.6 kmh W 9.0 mph14.5 kmh 29.90 in1012.5 mb 0.00 in0.0 mm 0.00 in0.0 mm 0.03 in0.8 mm
12:07 PM 57.2°F14.0°C 47.9°F8.8°C 75% 2.0 mph SSW3.2 kmh SSW 9.0 mph14.5 kmh 29.90 in1012.5 mb 0.00 in0.0 mm 0.00 in0.0 mm 0.03 in0.8 mm
12:09 PM 57.3°F14.1°C 48.0°F8.9°C 75% 2.0 mph SW3.2 kmh SW 9.0 mph14.5 kmh 29.89 in1012.2 mb 0.00 in0.0 mm 0.00 in0.0 mm 0.03 in0.8 mm
12:11 PM 57.5°F14.2°C 48.2°F9.0°C 75% 1.0 mph SW1.6 kmh SW 9.0 mph14.5 kmh 29.89 in1012.2 mb 0.00 in0.0 mm 0.00 in0.0 mm 0.03 in0.8 mm
12:13 PM 57.7°F14.3°C 47.6°F8.7°C 73% 2.0 mph SW3.2 kmh SW 9.0 mph14.5 kmh 29.89 in1012.2 mb 0.00 in0.0 mm 0.00 in0.0 mm 0.03 in0.8 mm
12:15 PM 57.8°F14.3°C 48.1°F8.9°C 74% 4.0 mph WSW6.4 kmh WSW 9.0 mph14.5 kmh 29.89 in1012.2 mb 0.00 in0.0 mm 0.00 in0.0 mm 0.03 in0.8 mm
12:17 PM 57.9°F14.4°C 48.2°F9.0°C 74% 2.0 mph S3.2 kmh S 9.0 mph14.5 kmh 29.89 in1012.2 mb 0.00 in0.0 mm 0.00 in0.0 mm 0.03 in0.8 mm
12:19 PM 58.0°F14.4°C 47.5°F8.6°C 72% 3.0 mph SW4.8 kmh SW 9.0 mph14.5 kmh 29.89 in1012.2 mb 0.00 in0.0 mm 0.00 in0.0 mm 0.03 in0.8 mm
12:21 PM 58.1°F14.5°C 47.6°F8.7°C 72% 1.0 mph WSW1.6 kmh WSW 9.0 mph14.5 kmh 29.89 in1012.2 mb 0.00 in0.0 mm 0.00 in0.0 mm 0.03 in0.8 mm
12:23 PM 58.3°F14.6°C 47.8°F8.8°C 72% 2.0 mph S3.2 kmh S 10.0 mph16.1 kmh 29.89 in1012.2 mb 0.00 in0.0 mm 0.00 in0.0 mm 0.03 in0.8 mm
12:25 PM 58.4°F14.7°C 47.5°F8.6°C 71% 3.0 mph S4.8 kmh S 10.0 mph16.1 kmh 29.89 in1012.2 mb 0.00 in0.0 mm 0.00 in0.0 mm 0.03 in0.8 mm
12:27 PM 58.6°F14.8°C 47.3°F8.5°C 70% 3.0 mph NW4.8 kmh NW 10.0 mph16.1 kmh 29.89 in1012.2 mb 0.00 in0.0 mm 0.00 in0.0 mm 0.03 in0.8 mm
12:29 PM 58.6°F14.8°C 47.7°F8.7°C 71% 2.0 mph WSW3.2 kmh WSW 10.0 mph16.1 kmh 29.89 in1012.2 mb 0.00 in0.0 mm 0.00 in0.0 mm 0.03 in0.8 mm
12:31 PM 58.7°F14.8°C 47.4°F8.6°C 70% 5.0 mph S8.0 kmh S 10.0 mph16.1 kmh 29.89 in1012.2 mb 0.00 in0.0 mm 0.00 in0.0 mm 0.03 in0.8 mm
12:33 PM 58.8°F14.9°C 47.1°F8.4°C 69% 1.0 mph SW1.6 kmh SW 10.0 mph16.1 kmh 29.89 in1012.2 mb 0.00 in0.0 mm 0.00 in0.0 mm 0.03 in0.8 mm
12:35 PM 58.8°F14.9°C 47.5°F8.6°C 70% 1.0 mph WSW1.6 kmh WSW 10.0 mph16.1 kmh 29.89 in1012.2 mb 0.00 in0.0 mm 0.00 in0.0 mm 0.03 in0.8 mm
12:37 PM 58.9°F14.9°C 48.0°F8.9°C 71% 1.0 mph SSW1.6 kmh SSW 10.0 mph16.1 kmh 29.89 in1012.2 mb 0.00 in0.0 mm 0.00 in0.0 mm 0.03 in0.8 mm
12:39 PM 59.0°F15.0°C 48.5°F9.2°C 72% 3.0 mph SW4.8 kmh SW 10.0 mph16.1 kmh 29.89 in1012.2 mb 0.00 in0.0 mm 0.00 in0.0 mm 0.03 in0.8 mm
12:41 PM 59.0°F15.0°C 47.2°F8.4°C 69% 2.0 mph W3.2 kmh W 10.0 mph16.1 kmh 29.89 in1012.2 mb 0.00 in0.0 mm 0.00 in0.0 mm 0.03 in0.8 mm
12:43 PM 59.0°F15.0°C 47.2°F8.4°C 69% 2.0 mph WNW3.2 kmh WNW 5.0 mph8.0 kmh 29.88 in1011.9 mb 0.00 in0.0 mm 0.00 in0.0 mm 0.03 in0.8 mm
12:45 PM 59.0°F15.0°C 46.8°F8.2°C 68% 3.0 mph WNW4.8 kmh WNW 7.0 mph11.3 kmh 29.88 in1011.9 mb 0.00 in0.0 mm 0.00 in0.0 mm 0.03 in0.8 mm
12:47 PM 59.0°F15.0°C 46.8°F8.2°C 68% 1.0 mph SW1.6 kmh SW 7.0 mph11.3 kmh 29.88 in1011.9 mb 0.00 in0.0 mm 0.00 in0.0 mm 0.03 in0.8 mm
12:49 PM 59.0°F15.0°C 47.2°F8.4°C 69% 2.0 mph WSW3.2 kmh WSW 7.0 mph11.3 kmh 29.88 in1011.9 mb 0.00 in0.0 mm 0.00 in0.0 mm 0.03 in0.8 mm
12:51 PM 59.0°F15.0°C 46.8°F8.2°C 68% 1.0 mph WSW1.6 kmh WSW 8.0 mph12.9 kmh 29.88 in1011.9 mb 0.00 in0.0 mm 0.00 in0.0 mm 0.03 in0.8 mm
12:53 PM 59.1°F15.1°C 47.3°F8.5°C 69% 1.0 mph SSW1.6 kmh SSW 8.0 mph12.9 kmh 29.88 in1011.9 mb 0.00 in0.0 mm 0.00 in0.0 mm 0.03 in0.8 mm
12:55 PM 59.2°F15.1°C 47.8°F8.8°C 70% 3.0 mph SW4.8 kmh SW 8.0 mph12.9 kmh 29.88 in1011.9 mb 0.00 in0.0 mm 0.00 in0.0 mm 0.03 in0.8 mm
12:57 PM 59.3°F15.2°C 47.9°F8.8°C 70% 1.0 mph SW1.6 kmh SW 8.0 mph12.9 kmh 29.88 in1011.9 mb 0.00 in0.0 mm 0.00 in0.0 mm 0.03 in0.8 mm
12:59 PM 59.3°F15.2°C 47.1°F8.4°C 68% 2.0 mph SSE3.2 kmh SSE 8.0 mph12.9 kmh 29.87 in1011.5 mb 0.00 in0.0 mm 0.00 in0.0 mm 0.03 in0.8 mm
01:01 PM 59.4°F15.2°C 46.8°F8.2°C 67% 1.0 mph SW1.6 kmh SW 8.0 mph12.9 kmh 29.87 in1011.5 mb 0.00 in0.0 mm 0.00 in0.0 mm 0.03 in0.8 mm
01:03 PM 59.6°F15.3°C 47.4°F8.6°C 68% 2.0 mph NW3.2 kmh NW 8.0 mph12.9 kmh 29.87 in1011.5 mb 0.00 in0.0 mm 0.00 in0.0 mm 0.03 in0.8 mm
01:05 PM 59.8°F15.4°C 47.6°F8.7°C 68% 3.0 mph SSW4.8 kmh SSW 8.0 mph12.9 kmh 29.87 in1011.5 mb 0.00 in0.0 mm 0.00 in0.0 mm 0.03 in0.8 mm
01:07 PM 60.0°F15.6°C 48.2°F9.0°C 69% 5.0 mph WSW8.0 kmh WSW 8.0 mph12.9 kmh 29.87 in1011.5 mb 0.00 in0.0 mm 0.00 in0.0 mm 0.03 in0.8 mm
01:09 PM 60.2°F15.7°C 47.1°F8.4°C 66% 2.0 mph W3.2 kmh W 10.0 mph16.1 kmh 29.87 in1011.5 mb 0.00 in0.0 mm 0.00 in0.0 mm 0.03 in0.8 mm
01:11 PM 60.5°F15.8°C 47.0°F8.3°C 65% 7.0 mph SW11.3 kmh SW 10.0 mph16.1 kmh 29.87 in1011.5 mb 0.00 in0.0 mm 0.00 in0.0 mm 0.03 in0.8 mm
01:13 PM 60.7°F15.9°C 46.7°F8.2°C 64% 2.0 mph WSW3.2 kmh WSW 10.0 mph16.1 kmh 29.86 in1011.2 mb 0.00 in0.0 mm 0.00 in0.0 mm 0.03 in0.8 mm
01:15 PM 60.9°F16.1°C 47.8°F8.8°C 66% Calm Calm 10.0 mph16.1 kmh 29.86 in1011.2 mb 0.00 in0.0 mm 0.00 in0.0 mm 0.03 in0.8 mm
01:17 PM 61.1°F16.2°C 47.5°F8.6°C 65% 4.0 mph SSW6.4 kmh SSW 10.0 mph16.1 kmh 29.86 in1011.2 mb 0.00 in0.0 mm 0.00 in0.0 mm 0.03 in0.8 mm
01:19 PM 61.2°F16.2°C 47.2°F8.4°C 64% 5.0 mph SSE8.0 kmh SSE 10.0 mph16.1 kmh 29.86 in1011.2 mb 0.00 in0.0 mm 0.00 in0.0 mm 0.03 in0.8 mm
01:21 PM 61.2°F16.2°C 46.3°F7.9°C 62% 2.0 mph S3.2 kmh S 10.0 mph16.1 kmh 29.86 in1011.2 mb 0.00 in0.0 mm 0.00 in0.0 mm 0.03 in0.8 mm
01:23 PM 61.3°F16.3°C 47.3°F8.5°C 64% 2.0 mph WNW3.2 kmh WNW 10.0 mph16.1 kmh 29.86 in1011.2 mb 0.00 in0.0 mm 0.00 in0.0 mm 0.03 in0.8 mm
01:25 PM 61.3°F16.3°C 47.3°F8.5°C 64% 2.0 mph SW3.2 kmh SW 10.0 mph16.1 kmh 29.86 in1011.2 mb 0.00 in0.0 mm 0.00 in0.0 mm 0.03 in0.8 mm
01:27 PM 61.3°F16.3°C 47.3°F8.5°C 64% 3.0 mph WNW4.8 kmh WNW 11.0 mph17.7 kmh 29.86 in1011.2 mb 0.00 in0.0 mm 0.00 in0.0 mm 0.03 in0.8 mm
01:29 PM 61.2°F16.2°C 47.2°F8.4°C 64% 6.0 mph W9.7 kmh W 11.0 mph17.7 kmh 29.86 in1011.2 mb 0.00 in0.0 mm 0.00 in0.0 mm 0.03 in0.8 mm
01:31 PM 61.1°F16.2°C 47.1°F8.4°C 64% 3.0 mph W4.8 kmh W 11.0 mph17.7 kmh 29.86 in1011.2 mb 0.00 in0.0 mm 0.00 in0.0 mm 0.03 in0.8 mm
01:33 PM 61.0°F16.1°C 46.6°F8.1°C 63% 2.0 mph WSW3.2 kmh WSW 11.0 mph17.7 kmh 29.86 in1011.2 mb 0.00 in0.0 mm 0.00 in0.0 mm 0.03 in0.8 mm
01:35 PM 61.0°F16.1°C 47.0°F8.3°C 64% 2.0 mph WSW3.2 kmh WSW 11.0 mph17.7 kmh 29.86 in1011.2 mb 0.00 in0.0 mm 0.00 in0.0 mm 0.03 in0.8 mm
01:37 PM 60.9°F16.1°C 46.9°F8.3°C 64% 2.0 mph WSW3.2 kmh WSW 11.0 mph17.7 kmh 29.86 in1011.2 mb 0.00 in0.0 mm 0.00 in0.0 mm 0.03 in0.8 mm
01:39 PM 60.9°F16.1°C 46.0°F7.8°C 62% 4.0 mph W6.4 kmh W 11.0 mph17.7 kmh 29.86 in1011.2 mb 0.00 in0.0 mm 0.00 in0.0 mm 0.03 in0.8 mm
01:41 PM 60.9°F16.1°C 46.0°F7.8°C 62% 2.0 mph WSW3.2 kmh WSW 13.0 mph20.9 kmh 29.86 in1011.2 mb 0.00 in0.0 mm 0.00 in0.0 mm 0.03 in0.8 mm
01:43 PM 60.9°F16.1°C 46.5°F8.1°C 63% 1.0 mph WNW1.6 kmh WNW 13.0 mph20.9 kmh 29.86 in1011.2 mb 0.00 in0.0 mm 0.00 in0.0 mm 0.03 in0.8 mm
01:45 PM 60.8°F16.0°C 46.4°F8.0°C 63% 2.0 mph S3.2 kmh S 13.0 mph20.9 kmh 29.85 in1010.8 mb 0.00 in0.0 mm 0.00 in0.0 mm 0.03 in0.8 mm
01:47 PM 60.8°F16.0°C 45.9°F7.7°C 62% 3.0 mph WSW4.8 kmh WSW 13.0 mph20.9 kmh 29.85 in1010.8 mb 0.00 in0.0 mm 0.00 in0.0 mm 0.03 in0.8 mm
01:49 PM 60.8°F16.0°C 45.9°F7.7°C 62% 5.0 mph WSW8.0 kmh WSW 13.0 mph20.9 kmh 29.85 in1010.8 mb 0.00 in0.0 mm 0.00 in0.0 mm 0.03 in0.8 mm
01:51 PM 60.8°F16.0°C 45.9°F7.7°C 62% 5.0 mph WSW8.0 kmh WSW 13.0 mph20.9 kmh 29.85 in1010.8 mb 0.00 in0.0 mm 0.00 in0.0 mm 0.03 in0.8 mm
01:53 PM 60.8°F16.0°C 45.9°F7.7°C 62% 3.0 mph SW4.8 kmh SW 13.0 mph20.9 kmh 29.85 in1010.8 mb 0.00 in0.0 mm 0.00 in0.0 mm 0.03 in0.8 mm
01:55 PM 60.8°F16.0°C 45.5°F7.5°C 61% 3.0 mph WNW4.8 kmh WNW 13.0 mph20.9 kmh 29.85 in1010.8 mb 0.00 in0.0 mm 0.00 in0.0 mm 0.03 in0.8 mm
01:57 PM 60.7°F15.9°C 45.8°F7.7°C 62% 5.0 mph NW8.0 kmh NW 13.0 mph20.9 kmh 29.85 in1010.8 mb 0.00 in0.0 mm 0.00 in0.0 mm 0.03 in0.8 mm
01:59 PM 60.7°F15.9°C 45.8°F7.7°C 62% 3.0 mph SW4.8 kmh SW 13.0 mph20.9 kmh 29.85 in1010.8 mb 0.00 in0.0 mm 0.00 in0.0 mm 0.03 in0.8 mm
02:01 PM 60.7°F15.9°C 45.8°F7.7°C 62% 4.0 mph SW6.4 kmh SW 12.0 mph19.3 kmh 29.85 in1010.8 mb 0.00 in0.0 mm 0.00 in0.0 mm 0.03 in0.8 mm
02:03 PM 60.7°F15.9°C 45.8°F7.7°C 62% 3.0 mph WSW4.8 kmh WSW 13.0 mph20.9 kmh 29.85 in1010.8 mb 0.00 in0.0 mm 0.00 in0.0 mm 0.03 in0.8 mm
02:05 PM 60.6°F15.9°C 45.7°F7.6°C 62% 4.0 mph W6.4 kmh W 13.0 mph20.9 kmh 29.85 in1010.8 mb 0.00 in0.0 mm 0.00 in0.0 mm 0.03 in0.8 mm
02:07 PM 60.6°F15.9°C 45.7°F7.6°C 62% 12.0 mph SW19.3 kmh SW 13.0 mph20.9 kmh 29.85 in1010.8 mb 0.00 in0.0 mm 0.00 in0.0 mm 0.03 in0.8 mm
02:09 PM 60.5°F15.8°C 45.6°F7.6°C 62% 7.0 mph SW11.3 kmh SW 13.0 mph20.9 kmh 29.84 in1010.5 mb 0.00 in0.0 mm 0.00 in0.0 mm 0.03 in0.8 mm
02:11 PM 60.5°F15.8°C 46.1°F7.8°C 63% 3.0 mph WNW4.8 kmh WNW 13.0 mph20.9 kmh 29.84 in1010.5 mb 0.00 in0.0 mm 0.00 in0.0 mm 0.03 in0.8 mm
02:13 PM 60.4°F15.8°C 45.6°F7.6°C 62% 5.0 mph SW8.0 kmh SW 13.0 mph20.9 kmh 29.84 in1010.5 mb 0.00 in0.0 mm 0.00 in0.0 mm 0.03 in0.8 mm
02:15 PM 60.4°F15.8°C 46.0°F7.8°C 63% 4.0 mph WNW6.4 kmh WNW 13.0 mph20.9 kmh 29.84 in1010.5 mb 0.00 in0.0 mm 0.00 in0.0 mm 0.03 in0.8 mm
02:17 PM 60.4°F15.8°C 46.4°F8.0°C 64% 2.0 mph SE3.2 kmh SE 13.0 mph20.9 kmh 29.84 in1010.5 mb 0.00 in0.0 mm 0.00 in0.0 mm 0.03 in0.8 mm
02:19 PM 60.4°F15.8°C 45.6°F7.6°C 62% 3.0 mph W4.8 kmh W 13.0 mph20.9 kmh 29.84 in1010.5 mb 0.00 in0.0 mm 0.00 in0.0 mm 0.03 in0.8 mm
02:21 PM 60.4°F15.8°C 45.6°F7.6°C 62% 1.0 mph WSW1.6 kmh WSW 13.0 mph20.9 kmh 29.84 in1010.5 mb 0.00 in0.0 mm 0.00 in0.0 mm 0.03 in0.8 mm
02:23 PM 60.3°F15.7°C 45.9°F7.7°C 63% 9.0 mph SSW14.5 kmh SSW 12.0 mph19.3 kmh 29.84 in1010.5 mb 0.00 in0.0 mm 0.00 in0.0 mm 0.03 in0.8 mm
02:25 PM 60.3°F15.7°C 45.9°F7.7°C 63% 6.0 mph W9.7 kmh W 12.0 mph19.3 kmh 29.84 in1010.5 mb 0.00 in0.0 mm 0.00 in0.0 mm 0.03 in0.8 mm
02:27 PM 60.2°F15.7°C 45.8°F7.7°C 63% 7.0 mph WSW11.3 kmh WSW 12.0 mph19.3 kmh 29.83 in1010.2 mb 0.00 in0.0 mm 0.00 in0.0 mm 0.03 in0.8 mm
02:29 PM 60.1°F15.6°C 45.7°F7.6°C 63% 5.0 mph WSW8.0 kmh WSW 14.0 mph22.5 kmh 29.83 in1010.2 mb 0.00 in0.0 mm 0.00 in0.0 mm 0.03 in0.8 mm
02:31 PM 60.1°F15.6°C 45.3°F7.4°C 62% 5.0 mph SW8.0 kmh SW 14.0 mph22.5 kmh 29.83 in1010.2 mb 0.00 in0.0 mm 0.00 in0.0 mm 0.03 in0.8 mm
02:33 PM 60.0°F15.6°C 46.1°F7.8°C 64% 1.0 mph WSW1.6 kmh WSW 14.0 mph22.5 kmh 29.83 in1010.2 mb 0.00 in0.0 mm 0.00 in0.0 mm 0.03 in0.8 mm
02:35 PM 60.0°F15.6°C 45.6°F7.6°C 63% 2.0 mph S3.2 kmh S 14.0 mph22.5 kmh 29.83 in1010.2 mb 0.00 in0.0 mm 0.00 in0.0 mm 0.03 in0.8 mm
02:37 PM 59.9°F15.5°C 45.1°F7.3°C 62% 1.0 mph SW1.6 kmh SW 14.0 mph22.5 kmh 29.83 in1010.2 mb 0.00 in0.0 mm 0.00 in0.0 mm 0.03 in0.8 mm
02:39 PM 59.9°F15.5°C 45.5°F7.5°C 63% 1.0 mph S1.6 kmh S 14.0 mph22.5 kmh 29.83 in1010.2 mb 0.00 in0.0 mm 0.00 in0.0 mm 0.03 in0.8 mm
02:41 PM 59.8°F15.4°C 45.9°F7.7°C 64% 4.0 mph SSW6.4 kmh SSW 14.0 mph22.5 kmh 29.82 in1009.8 mb 0.00 in0.0 mm 0.00 in0.0 mm 0.03 in0.8 mm
02:43 PM 59.7°F15.4°C 45.8°F7.7°C 64% 4.0 mph SW6.4 kmh SW 14.0 mph22.5 kmh 29.82 in1009.8 mb 0.00 in0.0 mm 0.00 in0.0 mm 0.03 in0.8 mm
02:45 PM 59.7°F15.4°C 45.3°F7.4°C 63% 2.0 mph W3.2 kmh W 14.0 mph22.5 kmh 29.82 in1009.8 mb 0.00 in0.0 mm 0.00 in0.0 mm 0.03 in0.8 mm
02:47 PM 59.6°F15.3°C 45.7°F7.6°C 64% 4.0 mph SW6.4 kmh SW 14.0 mph22.5 kmh 29.82 in1009.8 mb 0.00 in0.0 mm 0.00 in0.0 mm 0.03 in0.8 mm
02:49 PM 59.6°F15.3°C 45.7°F7.6°C 64% 1.0 mph S1.6 kmh S 10.0 mph16.1 kmh 29.82 in1009.8 mb 0.00 in0.0 mm 0.00 in0.0 mm 0.03 in0.8 mm
02:51 PM 59.6°F15.3°C 45.7°F7.6°C 64% 11.0 mph SSW17.7 kmh SSW 11.0 mph17.7 kmh 29.82 in1009.8 mb 0.00 in0.0 mm 0.00 in0.0 mm 0.03 in0.8 mm
02:53 PM 59.5°F15.3°C 45.2°F7.3°C 63% 3.0 mph WNW4.8 kmh WNW 11.0 mph17.7 kmh 29.82 in1009.8 mb 0.00 in0.0 mm 0.00 in0.0 mm 0.03 in0.8 mm
02:55 PM 59.5°F15.3°C 46.0°F7.8°C 65% 3.0 mph W4.8 kmh W 12.0 mph19.3 kmh 29.82 in1009.8 mb 0.00 in0.0 mm 0.00 in0.0 mm 0.03 in0.8 mm
02:57 PM 59.4°F15.2°C 45.1°F7.3°C 63% 4.0 mph WSW6.4 kmh WSW 12.0 mph19.3 kmh 29.82 in1009.8 mb 0.00 in0.0 mm 0.00 in0.0 mm 0.03 in0.8 mm
02:59 PM 59.5°F15.3°C 45.2°F7.3°C 63% 4.0 mph W6.4 kmh W 12.0 mph19.3 kmh 29.82 in1009.8 mb 0.00 in0.0 mm 0.00 in0.0 mm 0.03 in0.8 mm
03:01 PM 59.5°F15.3°C 45.6°F7.6°C 64% 2.0 mph WSW3.2 kmh WSW 12.0 mph19.3 kmh 29.81 in1009.5 mb 0.00 in0.0 mm 0.00 in0.0 mm 0.03 in0.8 mm
03:03 PM 59.4°F15.2°C 45.1°F7.3°C 63% 1.0 mph SSW1.6 kmh SSW 12.0 mph19.3 kmh 29.81 in1009.5 mb 0.00 in0.0 mm 0.00 in0.0 mm 0.03 in0.8 mm
03:05 PM 59.4°F15.2°C 45.1°F7.3°C 63% 1.0 mph W1.6 kmh W 12.0 mph19.3 kmh 29.81 in1009.5 mb 0.00 in0.0 mm 0.00 in0.0 mm 0.03 in0.8 mm
03:07 PM 59.4°F15.2°C 45.5°F7.5°C 64% 4.0 mph SW6.4 kmh SW 12.0 mph19.3 kmh 29.81 in1009.5 mb 0.00 in0.0 mm 0.00 in0.0 mm 0.03 in0.8 mm
03:09 PM 59.4°F15.2°C 45.1°F7.3°C 63% 4.0 mph SW6.4 kmh SW 12.0 mph19.3 kmh 29.81 in1009.5 mb 0.00 in0.0 mm 0.00 in0.0 mm 0.03 in0.8 mm
03:11 PM 59.4°F15.2°C 45.1°F7.3°C 63% Calm Calm 12.0 mph19.3 kmh 29.81 in1009.5 mb 0.00 in0.0 mm 0.00 in0.0 mm 0.03 in0.8 mm
03:13 PM 59.4°F15.2°C 45.5°F7.5°C 64% 7.0 mph SW11.3 kmh SW 12.0 mph19.3 kmh 29.81 in1009.5 mb 0.00 in0.0 mm 0.00 in0.0 mm 0.03 in0.8 mm
03:15 PM 59.3°F15.2°C 45.0°F7.2°C 63% 2.0 mph WSW3.2 kmh WSW 10.0 mph16.1 kmh 29.81 in1009.5 mb 0.00 in0.0 mm 0.00 in0.0 mm 0.03 in0.8 mm
03:17 PM 59.3°F15.2°C 45.0°F7.2°C 63% 9.0 mph SSE14.5 kmh SSE 10.0 mph16.1 kmh 29.81 in1009.5 mb 0.00 in0.0 mm 0.00 in0.0 mm 0.03 in0.8 mm
03:19 PM 59.2°F15.1°C 44.9°F7.2°C 63% 2.0 mph WSW3.2 kmh WSW 11.0 mph17.7 kmh 29.81 in1009.5 mb 0.00 in0.0 mm 0.00 in0.0 mm 0.03 in0.8 mm
03:21 PM 59.2°F15.1°C 45.3°F7.4°C 64% 1.0 mph WSW1.6 kmh WSW 11.0 mph17.7 kmh 29.81 in1009.5 mb 0.00 in0.0 mm 0.00 in0.0 mm 0.03 in0.8 mm
03:23 PM 59.2°F15.1°C 45.8°F7.7°C 65% 7.0 mph W11.3 kmh W 11.0 mph17.7 kmh 29.81 in1009.5 mb 0.00 in0.0 mm 0.00 in0.0 mm 0.03 in0.8 mm
03:25 PM 59.1°F15.1°C 45.2°F7.3°C 64% 2.0 mph SW3.2 kmh SW 11.0 mph17.7 kmh 29.81 in1009.5 mb 0.00 in0.0 mm 0.00 in0.0 mm 0.03 in0.8 mm
03:27 PM 59.1°F15.1°C 45.2°F7.3°C 64% 5.0 mph SW8.0 kmh SW 11.0 mph17.7 kmh 29.81 in1009.5 mb 0.00 in0.0 mm 0.00 in0.0 mm 0.03 in0.8 mm
03:29 PM 59.1°F15.1°C 45.2°F7.3°C 64% 1.0 mph SW1.6 kmh SW 11.0 mph17.7 kmh 29.81 in1009.5 mb 0.00 in0.0 mm 0.00 in0.0 mm 0.03 in0.8 mm
03:31 PM 59.0°F15.0°C 45.1°F7.3°C 64% 1.0 mph WSW1.6 kmh WSW 11.0 mph17.7 kmh 29.81 in1009.5 mb 0.00 in0.0 mm 0.00 in0.0 mm 0.03 in0.8 mm
03:33 PM 59.0°F15.0°C 45.6°F7.6°C 65% 4.0 mph W6.4 kmh W 11.0 mph17.7 kmh 29.81 in1009.5 mb 0.00 in0.0 mm 0.00 in0.0 mm 0.03 in0.8 mm
03:35 PM 58.9°F14.9°C 45.0°F7.2°C 64% 1.0 mph SW1.6 kmh SW 12.0 mph19.3 kmh 29.81 in1009.5 mb 0.00 in0.0 mm 0.00 in0.0 mm 0.03 in0.8 mm
03:37 PM 58.9°F14.9°C 45.5°F7.5°C 65% 3.0 mph SW4.8 kmh SW 12.0 mph19.3 kmh 29.81 in1009.5 mb 0.00 in0.0 mm 0.00 in0.0 mm 0.03 in0.8 mm
03:39 PM 58.8°F14.9°C 45.4°F7.4°C 65% 2.0 mph N3.2 kmh N 12.0 mph19.3 kmh 29.81 in1009.5 mb 0.00 in0.0 mm 0.00 in0.0 mm 0.03 in0.8 mm
03:41 PM 58.8°F14.9°C 44.9°F7.2°C 64% 2.0 mph SW3.2 kmh SW 12.0 mph19.3 kmh 29.81 in1009.5 mb 0.00 in0.0 mm 0.00 in0.0 mm 0.03 in0.8 mm
03:43 PM 58.7°F14.8°C 45.3°F7.4°C 65% 3.0 mph S4.8 kmh S 12.0 mph19.3 kmh 29.81 in1009.5 mb 0.00 in0.0 mm 0.00 in0.0 mm 0.03 in0.8 mm
03:45 PM 58.7°F14.8°C 44.8°F7.1°C 64% 1.0 mph W1.6 kmh W 12.0 mph19.3 kmh 29.81 in1009.5 mb 0.00 in0.0 mm 0.00 in0.0 mm 0.03 in0.8 mm
03:47 PM 58.7°F14.8°C 45.3°F7.4°C 65% 2.0 mph W3.2 kmh W 12.0 mph19.3 kmh 29.81 in1009.5 mb 0.00 in0.0 mm 0.00 in0.0 mm 0.03 in0.8 mm
03:49 PM 58.6°F14.8°C 45.2°F7.3°C 65% 6.0 mph SW9.7 kmh SW 12.0 mph19.3 kmh 29.81 in1009.5 mb 0.00 in0.0 mm 0.00 in0.0 mm 0.03 in0.8 mm
03:51 PM 58.6°F14.8°C 45.2°F7.3°C 65% 2.0 mph W3.2 kmh W 12.0 mph19.3 kmh 29.81 in1009.5 mb 0.00 in0.0 mm 0.00 in0.0 mm 0.03 in0.8 mm
03:53 PM 58.5°F14.7°C 45.1°F7.3°C 65% 4.0 mph WSW6.4 kmh WSW 12.0 mph19.3 kmh 29.80 in1009.1 mb 0.00 in0.0 mm 0.00 in0.0 mm 0.03 in0.8 mm
03:55 PM 58.5°F14.7°C 45.1°F7.3°C 65% 3.0 mph SW4.8 kmh SW 8.0 mph12.9 kmh 29.80 in1009.1 mb 0.00 in0.0 mm 0.00 in0.0 mm 0.03 in0.8 mm
03:57 PM 58.4°F14.7°C 45.0°F7.2°C 65% 1.0 mph WSW1.6 kmh WSW 10.0 mph16.1 kmh 29.80 in1009.1 mb 0.00 in0.0 mm 0.00 in0.0 mm 0.03 in0.8 mm
03:59 PM 58.3°F14.6°C 44.9°F7.2°C 65% 2.0 mph SW3.2 kmh SW 10.0 mph16.1 kmh 29.80 in1009.1 mb 0.00 in0.0 mm 0.00 in0.0 mm 0.03 in0.8 mm
04:01 PM 58.2°F14.6°C 45.2°F7.3°C 66% 5.0 mph SW8.0 kmh SW 10.0 mph16.1 kmh 29.80 in1009.1 mb 0.00 in0.0 mm 0.00 in0.0 mm 0.03 in0.8 mm
04:03 PM 58.1°F14.5°C 45.6°F7.6°C 67% 2.0 mph S3.2 kmh S 10.0 mph16.1 kmh 29.81 in1009.5 mb 0.00 in0.0 mm 0.00 in0.0 mm 0.03 in0.8 mm
04:05 PM 58.0°F14.4°C 45.9°F7.7°C 68% 3.0 mph WSW4.8 kmh WSW 10.0 mph16.1 kmh 29.81 in1009.5 mb 0.00 in0.0 mm 0.00 in0.0 mm 0.03 in0.8 mm
04:07 PM 57.8°F14.3°C 46.1°F7.8°C 69% 3.0 mph S4.8 kmh S 10.0 mph16.1 kmh 29.81 in1009.5 mb 0.00 in0.0 mm 0.00 in0.0 mm 0.03 in0.8 mm
04:09 PM 57.7°F14.3°C 46.4°F8.0°C 70% 4.0 mph SSW6.4 kmh SSW 10.0 mph16.1 kmh 29.81 in1009.5 mb 0.00 in0.0 mm 0.00 in0.0 mm 0.03 in0.8 mm
04:11 PM 57.4°F14.1°C 46.1°F7.8°C 70% Calm Calm 10.0 mph16.1 kmh 29.81 in1009.5 mb 0.00 in0.0 mm 0.00 in0.0 mm 0.04 in1.0 mm
04:13 PM 57.2°F14.0°C 47.1°F8.4°C 73% 4.0 mph S6.4 kmh S 10.0 mph16.1 kmh 29.81 in1009.5 mb 0.00 in0.0 mm 0.00 in0.0 mm 0.04 in1.0 mm
04:15 PM 56.9°F13.8°C 46.8°F8.2°C 73% 3.0 mph NW4.8 kmh NW 11.0 mph17.7 kmh 29.81 in1009.5 mb 0.00 in0.0 mm 0.00 in0.0 mm 0.04 in1.0 mm
04:17 PM 56.6°F13.7°C 46.9°F8.3°C 74% 2.0 mph S3.2 kmh S 11.0 mph17.7 kmh 29.81 in1009.5 mb 0.00 in0.0 mm 0.00 in0.0 mm 0.04 in1.0 mm
04:19 PM 56.3°F13.5°C 47.0°F8.3°C 75% Calm Calm 11.0 mph17.7 kmh 29.81 in1009.5 mb 0.00 in0.0 mm 0.00 in0.0 mm 0.04 in1.0 mm
04:21 PM 56.1°F13.4°C 47.6°F8.7°C 77% 4.0 mph SW6.4 kmh SW 11.0 mph17.7 kmh 29.80 in1009.1 mb 0.00 in0.0 mm 0.00 in0.0 mm 0.04 in1.0 mm
04:23 PM 55.9°F13.3°C 47.4°F8.6°C 77% Calm Calm 11.0 mph17.7 kmh 29.80 in1009.1 mb 0.05 in1.3 mm 1.50 in38.1 mm 0.05 in1.3 mm
04:25 PM 55.6°F13.1°C 47.4°F8.6°C 78% 1.0 mph S1.6 kmh S 11.0 mph17.7 kmh 29.80 in1009.1 mb 0.05 in1.3 mm 0.00 in0.0 mm 0.05 in1.3 mm
04:27 PM 55.4°F13.0°C 47.6°F8.7°C 79% 4.0 mph SSE6.4 kmh SSE 11.0 mph17.7 kmh 29.80 in1009.1 mb 0.05 in1.3 mm 0.00 in0.0 mm 0.05 in1.3 mm
04:29 PM 55.1°F12.8°C 47.3°F8.5°C 79% 2.0 mph WSW3.2 kmh WSW 11.0 mph17.7 kmh 29.80 in1009.1 mb 0.05 in1.3 mm 0.00 in0.0 mm 0.05 in1.3 mm
04:31 PM 54.8°F12.7°C 47.4°F8.6°C 80% 2.0 mph WSW3.2 kmh WSW 11.0 mph17.7 kmh 29.80 in1009.1 mb 0.05 in1.3 mm 0.00 in0.0 mm 0.05 in1.3 mm
04:33 PM 54.5°F12.5°C 47.1°F8.4°C 80% 2.0 mph SSW3.2 kmh SSW 11.0 mph17.7 kmh 29.80 in1009.1 mb 0.05 in1.3 mm 0.00 in0.0 mm 0.05 in1.3 mm
04:35 PM 54.3°F12.4°C 47.2°F8.4°C 81% 2.0 mph SW3.2 kmh SW 8.0 mph12.9 kmh 29.80 in1009.1 mb 0.05 in1.3 mm 0.00 in0.0 mm 0.05 in1.3 mm
04:37 PM 54.1°F12.3°C 47.4°F8.6°C 82% 1.0 mph SW1.6 kmh SW 8.0 mph12.9 kmh 29.80 in1009.1 mb 0.04 in1.0 mm 0.00 in0.0 mm 0.05 in1.3 mm
04:39 PM 54.0°F12.2°C 47.3°F8.5°C 82% 1.0 mph SSW1.6 kmh SSW 8.0 mph12.9 kmh 29.80 in1009.1 mb 0.04 in1.0 mm 0.00 in0.0 mm 0.06 in1.5 mm
04:41 PM 53.8°F12.1°C 47.4°F8.6°C 83% 3.0 mph SW4.8 kmh SW 8.0 mph12.9 kmh 29.80 in1009.1 mb 0.04 in1.0 mm 0.00 in0.0 mm 0.06 in1.5 mm
04:43 PM 53.6°F12.0°C 47.2°F8.4°C 83% 2.0 mph S3.2 kmh S 8.0 mph12.9 kmh 29.79 in1008.8 mb 0.04 in1.0 mm 0.00 in0.0 mm 0.06 in1.5 mm
04:45 PM 53.5°F11.9°C 47.5°F8.6°C 84% 5.0 mph SSW8.0 kmh SSW 6.0 mph9.7 kmh 29.79 in1008.8 mb 0.04 in1.0 mm 0.00 in0.0 mm 0.06 in1.5 mm
04:47 PM 53.3°F11.8°C 47.3°F8.5°C 84% 1.0 mph S1.6 kmh S 6.0 mph9.7 kmh 29.79 in1008.8 mb 0.04 in1.0 mm 0.00 in0.0 mm 0.06 in1.5 mm
04:49 PM 53.2°F11.8°C 47.5°F8.6°C 85% 1.0 mph S1.6 kmh S 7.0 mph11.3 kmh 29.79 in1008.8 mb 0.04 in1.0 mm 0.00 in0.0 mm 0.06 in1.5 mm
04:51 PM 53.0°F11.7°C 47.3°F8.5°C 85% 1.0 mph S1.6 kmh S 7.0 mph11.3 kmh 29.79 in1008.8 mb 0.05 in1.3 mm 0.30 in7.6 mm 0.07 in1.8 mm
04:53 PM 52.9°F11.6°C 47.2°F8.4°C 85% Calm Calm 9.0 mph14.5 kmh 29.79 in1008.8 mb 0.05 in1.3 mm 0.00 in0.0 mm 0.07 in1.8 mm
04:55 PM 52.8°F11.6°C 47.5°F8.6°C 86% 2.0 mph S3.2 kmh S 9.0 mph14.5 kmh 29.79 in1008.8 mb 0.05 in1.3 mm 0.00 in0.0 mm 0.07 in1.8 mm
04:57 PM 52.7°F11.5°C 47.4°F8.6°C 86% 1.0 mph SSW1.6 kmh SSW 9.0 mph14.5 kmh 29.78 in1008.5 mb 0.05 in1.3 mm 0.00 in0.0 mm 0.07 in1.8 mm
04:59 PM 52.6°F11.4°C 47.3°F8.5°C 86% 2.0 mph S3.2 kmh S 9.0 mph14.5 kmh 29.78 in1008.5 mb 0.05 in1.3 mm 0.00 in0.0 mm 0.07 in1.8 mm
05:01 PM 52.4°F11.3°C 47.4°F8.6°C 87% 1.0 mph SSW1.6 kmh SSW 9.0 mph14.5 kmh 29.78 in1008.5 mb 0.06 in1.5 mm 0.01 in0.3 mm 0.07 in1.8 mm
05:03 PM 52.3°F11.3°C 47.3°F8.5°C 87% 1.0 mph S1.6 kmh S 9.0 mph14.5 kmh 29.78 in1008.5 mb 0.06 in1.5 mm 0.00 in0.0 mm 0.08 in2.0 mm
05:05 PM 52.3°F11.3°C 47.3°F8.5°C 87% Calm Calm 9.0 mph14.5 kmh 29.78 in1008.5 mb 0.06 in1.5 mm 0.00 in0.0 mm 0.08 in2.0 mm
05:07 PM 52.2°F11.2°C 47.5°F8.6°C 88% 2.0 mph S3.2 kmh S 9.0 mph14.5 kmh 29.78 in1008.5 mb 0.10 in2.5 mm 1.20 in30.5 mm 0.09 in2.3 mm
05:09 PM 52.1°F11.2°C 47.4°F8.6°C 88% 1.0 mph SSW1.6 kmh SSW 9.0 mph14.5 kmh 29.78 in1008.5 mb 0.10 in2.5 mm 0.00 in0.0 mm 0.09 in2.3 mm
05:11 PM 52.0°F11.1°C 47.3°F8.5°C 88% Calm Calm 9.0 mph14.5 kmh 29.78 in1008.5 mb 0.10 in2.5 mm 0.00 in0.0 mm 0.09 in2.3 mm
05:13 PM 51.9°F11.1°C 47.5°F8.6°C 89% 2.0 mph WSW3.2 kmh WSW 7.0 mph11.3 kmh 29.78 in1008.5 mb 0.10 in2.5 mm 0.00 in0.0 mm 0.10 in2.5 mm
05:15 PM 51.9°F11.1°C 47.5°F8.6°C 89% 2.0 mph SSW3.2 kmh SSW 7.0 mph11.3 kmh 29.78 in1008.5 mb 0.10 in2.5 mm 0.00 in0.0 mm 0.10 in2.5 mm
05:17 PM 51.8°F11.0°C 47.4°F8.6°C 89% 4.0 mph SSE6.4 kmh SSE 7.0 mph11.3 kmh 29.78 in1008.5 mb 0.10 in2.5 mm 0.00 in0.0 mm 0.10 in2.5 mm
05:19 PM 51.8°F11.0°C 47.4°F8.6°C 89% 2.0 mph S3.2 kmh S 7.0 mph11.3 kmh 29.78 in1008.5 mb 0.09 in2.3 mm 0.00 in0.0 mm 0.10 in2.5 mm
05:21 PM 51.7°F10.9°C 47.3°F8.5°C 89% 2.0 mph SE3.2 kmh SE 7.0 mph11.3 kmh 29.78 in1008.5 mb 0.07 in1.8 mm 0.00 in0.0 mm 0.10 in2.5 mm
05:23 PM 51.7°F10.9°C 47.6°F8.7°C 90% 6.0 mph SSE9.7 kmh SSE 9.0 mph14.5 kmh 29.77 in1008.1 mb 0.05 in1.3 mm 0.00 in0.0 mm 0.10 in2.5 mm
05:25 PM 51.6°F10.9°C 47.5°F8.6°C 90% 2.0 mph S3.2 kmh S 9.0 mph14.5 kmh 29.77 in1008.1 mb 0.05 in1.3 mm 0.00 in0.0 mm 0.10 in2.5 mm
05:27 PM 51.5°F10.8°C 47.5°F8.6°C 90% 1.0 mph S1.6 kmh S 9.0 mph14.5 kmh 29.77 in1008.1 mb 0.04 in1.0 mm 0.00 in0.0 mm 0.10 in2.5 mm
05:29 PM 51.5°F10.8°C 47.5°F8.6°C 90% 1.0 mph S1.6 kmh S 9.0 mph14.5 kmh 29.76 in1007.8 mb 0.04 in1.0 mm 0.00 in0.0 mm 0.10 in2.5 mm
05:31 PM 51.4°F10.8°C 47.4°F8.6°C 90% 4.0 mph SSE6.4 kmh SSE 9.0 mph14.5 kmh 29.76 in1007.8 mb 0.00 in0.0 mm 0.00 in0.0 mm 0.10 in2.5 mm
05:33 PM 51.4°F10.8°C 47.4°F8.6°C 90% 3.0 mph SSE4.8 kmh SSE 9.0 mph14.5 kmh 29.76 in1007.8 mb 0.00 in0.0 mm 0.00 in0.0 mm 0.10 in2.5 mm
05:35 PM 51.4°F10.8°C 47.4°F8.6°C 90% 1.0 mph SSW1.6 kmh SSW 9.0 mph14.5 kmh 29.76 in1007.8 mb 0.00 in0.0 mm 0.00 in0.0 mm 0.10 in2.5 mm
05:37 PM 51.3°F10.7°C 47.6°F8.7°C 91% Calm Calm 9.0 mph14.5 kmh 29.76 in1007.8 mb 0.00 in0.0 mm 0.00 in0.0 mm 0.10 in2.5 mm
05:39 PM 51.2°F10.7°C 47.5°F8.6°C 91% 1.0 mph S1.6 kmh S 9.0 mph14.5 kmh 29.76 in1007.8 mb 0.00 in0.0 mm 0.00 in0.0 mm 0.10 in2.5 mm
05:41 PM 51.2°F10.7°C 47.5°F8.6°C 91% 2.0 mph S3.2 kmh S 9.0 mph14.5 kmh 29.76 in1007.8 mb 0.00 in0.0 mm 0.00 in0.0 mm 0.10 in2.5 mm
05:43 PM 51.2°F10.7°C 47.5°F8.6°C 91% 2.0 mph SSW3.2 kmh SSW 8.0 mph12.9 kmh 29.76 in1007.8 mb 0.00 in0.0 mm 0.00 in0.0 mm 0.10 in2.5 mm
05:45 PM 51.2°F10.7°C 47.5°F8.6°C 91% 2.0 mph SE3.2 kmh SE 8.0 mph12.9 kmh 29.76 in1007.8 mb 0.00 in0.0 mm 0.00 in0.0 mm 0.10 in2.5 mm
05:47 PM 51.1°F10.6°C 47.4°F8.6°C 91% 1.0 mph SSE1.6 kmh SSE 8.0 mph12.9 kmh 29.76 in1007.8 mb 0.00 in0.0 mm 0.00 in0.0 mm 0.10 in2.5 mm
05:49 PM 51.1°F10.6°C 47.4°F8.6°C 91% 1.0 mph S1.6 kmh S 8.0 mph12.9 kmh 29.76 in1007.8 mb 0.00 in0.0 mm 0.00 in0.0 mm 0.10 in2.5 mm
05:51 PM 51.0°F10.6°C 47.3°F8.5°C 91% 5.0 mph SSE8.0 kmh SSE 8.0 mph12.9 kmh 29.76 in1007.8 mb 0.00 in0.0 mm 0.00 in0.0 mm 0.10 in2.5 mm
05:53 PM 51.0°F10.6°C 47.3°F8.5°C 91% 1.0 mph SSE1.6 kmh SSE 5.0 mph8.0 kmh 29.76 in1007.8 mb 0.00 in0.0 mm 0.00 in0.0 mm 0.10 in2.5 mm
05:55 PM 51.0°F10.6°C 47.3°F8.5°C 91% 1.0 mph SSE1.6 kmh SSE 5.0 mph8.0 kmh 29.76 in1007.8 mb 0.00 in0.0 mm 0.00 in0.0 mm 0.10 in2.5 mm
05:57 PM 50.9°F10.5°C 47.2°F8.4°C 91% 1.0 mph SSE1.6 kmh SSE 5.0 mph8.0 kmh 29.76 in1007.8 mb 0.00 in0.0 mm 0.00 in0.0 mm 0.10 in2.5 mm
05:59 PM 50.9°F10.5°C 47.2°F8.4°C 91% Calm Calm 5.0 mph8.0 kmh 29.76 in1007.8 mb 0.00 in0.0 mm 0.00 in0.0 mm 0.10 in2.5 mm
06:01 PM 50.9°F10.5°C 47.2°F8.4°C 91% 1.0 mph SE1.6 kmh SE 5.0 mph8.0 kmh 29.76 in1007.8 mb 0.00 in0.0 mm 0.00 in0.0 mm 0.10 in2.5 mm
06:03 PM 50.9°F10.5°C 47.2°F8.4°C 91% 3.0 mph SE4.8 kmh SE 5.0 mph8.0 kmh 29.76 in1007.8 mb 0.00 in0.0 mm 0.00 in0.0 mm 0.10 in2.5 mm
06:05 PM 50.9°F10.5°C 47.5°F8.6°C 92% 2.0 mph SW3.2 kmh SW 3.0 mph4.8 kmh 29.76 in1007.8 mb 0.00 in0.0 mm 0.00 in0.0 mm 0.10 in2.5 mm
06:07 PM 50.9°F10.5°C 47.5°F8.6°C 92% Calm Calm 4.0 mph6.4 kmh 29.76 in1007.8 mb 0.00 in0.0 mm 0.00 in0.0 mm 0.10 in2.5 mm
06:09 PM 50.9°F10.5°C 47.5°F8.6°C 92% 1.0 mph S1.6 kmh S 4.0 mph6.4 kmh 29.75 in1007.5 mb 0.00 in0.0 mm 0.00 in0.0 mm 0.11 in2.8 mm
06:11 PM 50.9°F10.5°C 47.5°F8.6°C 92% 2.0 mph SSE3.2 kmh SSE 5.0 mph8.0 kmh 29.75 in1007.5 mb 0.00 in0.0 mm 0.00 in0.0 mm 0.11 in2.8 mm
06:13 PM 50.9°F10.5°C 47.5°F8.6°C 92% 2.0 mph S3.2 kmh S 5.0 mph8.0 kmh 29.75 in1007.5 mb 0.00 in0.0 mm 0.00 in0.0 mm 0.11 in2.8 mm
06:15 PM 51.0°F10.6°C 47.6°F8.7°C 92% 2.0 mph S3.2 kmh S 5.0 mph8.0 kmh 29.75 in1007.5 mb 0.00 in0.0 mm 0.00 in0.0 mm 0.11 in2.8 mm
06:17 PM 51.0°F10.6°C 47.3°F8.5°C 91% 1.0 mph SE1.6 kmh SE 5.0 mph8.0 kmh 29.75 in1007.5 mb 0.00 in0.0 mm 0.00 in0.0 mm 0.11 in2.8 mm
06:19 PM 51.0°F10.6°C 47.3°F8.5°C 91% 3.0 mph SSW4.8 kmh SSW 5.0 mph8.0 kmh 29.75 in1007.5 mb 0.00 in0.0 mm 0.00 in0.0 mm 0.11 in2.8 mm
06:21 PM 51.0°F10.6°C 47.3°F8.5°C 91% 1.0 mph SE1.6 kmh SE 6.0 mph9.7 kmh 29.75 in1007.5 mb 0.00 in0.0 mm 0.00 in0.0 mm 0.11 in2.8 mm
06:23 PM 51.0°F10.6°C 47.3°F8.5°C 91% 4.0 mph S6.4 kmh S 6.0 mph9.7 kmh 29.75 in1007.5 mb 0.00 in0.0 mm 0.00 in0.0 mm 0.11 in2.8 mm
06:25 PM 51.0°F10.6°C 47.3°F8.5°C 91% 1.0 mph SSE1.6 kmh SSE 11.0 mph17.7 kmh 29.75 in1007.5 mb 0.00 in0.0 mm 0.00 in0.0 mm 0.11 in2.8 mm
06:27 PM 51.0°F10.6°C 47.3°F8.5°C 91% Calm Calm 11.0 mph17.7 kmh 29.75 in1007.5 mb 0.00 in0.0 mm 0.00 in0.0 mm 0.11 in2.8 mm
06:29 PM 51.0°F10.6°C 47.3°F8.5°C 91% 3.0 mph SSW4.8 kmh SSW 11.0 mph17.7 kmh 29.75 in1007.5 mb 0.00 in0.0 mm 0.00 in0.0 mm 0.11 in2.8 mm
06:31 PM 51.0°F10.6°C 47.3°F8.5°C 91% 1.0 mph SSW1.6 kmh SSW 11.0 mph17.7 kmh 29.75 in1007.5 mb 0.00 in0.0 mm 0.00 in0.0 mm 0.11 in2.8 mm
06:33 PM 51.1°F10.6°C 47.4°F8.6°C 91% 2.0 mph SW3.2 kmh SW 11.0 mph17.7 kmh 29.75 in1007.5 mb 0.00 in0.0 mm 0.00 in0.0 mm 0.11 in2.8 mm
06:35 PM 51.2°F10.7°C 47.5°F8.6°C 91% 2.0 mph WSW3.2 kmh WSW 11.0 mph17.7 kmh 29.75 in1007.5 mb 0.00 in0.0 mm 0.00 in0.0 mm 0.11 in2.8 mm
06:37 PM 51.3°F10.7°C 47.3°F8.5°C 90% 1.0 mph S1.6 kmh S 11.0 mph17.7 kmh 29.75 in1007.5 mb 0.00 in0.0 mm 0.00 in0.0 mm 0.11 in2.8 mm
06:39 PM 51.3°F10.7°C 47.3°F8.5°C 90% 2.0 mph WSW3.2 kmh WSW 12.0 mph19.3 kmh 29.75 in1007.5 mb 0.00 in0.0 mm 0.00 in0.0 mm 0.11 in2.8 mm
06:41 PM 51.5°F10.8°C 47.5°F8.6°C 90% 2.0 mph SSW3.2 kmh SSW 12.0 mph19.3 kmh 29.74 in1007.1 mb 0.00 in0.0 mm 0.00 in0.0 mm 0.11 in2.8 mm
06:43 PM 51.6°F10.9°C 47.5°F8.6°C 90% 3.0 mph SE4.8 kmh SE 12.0 mph19.3 kmh 29.75 in1007.5 mb 0.00 in0.0 mm 0.00 in0.0 mm 0.11 in2.8 mm
06:45 PM 51.7°F10.9°C 47.3°F8.5°C 89% 3.0 mph SW4.8 kmh SW 12.0 mph19.3 kmh 29.74 in1007.1 mb 0.00 in0.0 mm 0.00 in0.0 mm 0.11 in2.8 mm
06:47 PM 51.8°F11.0°C 47.4°F8.6°C 89% 2.0 mph S3.2 kmh S 13.0 mph20.9 kmh 29.74 in1007.1 mb 0.00 in0.0 mm 0.00 in0.0 mm 0.11 in2.8 mm
06:49 PM 52.0°F11.1°C 47.3°F8.5°C 88% 1.0 mph NE1.6 kmh NE 13.0 mph20.9 kmh 29.74 in1007.1 mb 0.00 in0.0 mm 0.00 in0.0 mm 0.11 in2.8 mm
06:51 PM 52.2°F11.2°C 47.5°F8.6°C 88% 4.0 mph W6.4 kmh W 13.0 mph20.9 kmh 29.74 in1007.1 mb 0.00 in0.0 mm 0.00 in0.0 mm 0.11 in2.8 mm
06:53 PM 52.2°F11.2°C 47.5°F8.6°C 88% 6.0 mph SSW9.7 kmh SSW 13.0 mph20.9 kmh 29.74 in1007.1 mb 0.00 in0.0 mm 0.00 in0.0 mm 0.11 in2.8 mm
06:55 PM 52.3°F11.3°C 47.6°F8.7°C 88% 3.0 mph SSE4.8 kmh SSE 13.0 mph20.9 kmh 29.74 in1007.1 mb 0.00 in0.0 mm 0.00 in0.0 mm 0.11 in2.8 mm
06:57 PM 52.4°F11.3°C 47.4°F8.6°C 87% 4.0 mph SW6.4 kmh SW 13.0 mph20.9 kmh 29.74 in1007.1 mb 0.00 in0.0 mm 0.00 in0.0 mm 0.11 in2.8 mm
06:59 PM 52.5°F11.4°C 47.5°F8.6°C 87% 2.0 mph SSW3.2 kmh SSW 13.0 mph20.9 kmh 29.74 in1007.1 mb 0.00 in0.0 mm 0.00 in0.0 mm 0.11 in2.8 mm
07:01 PM 52.6°F11.4°C 47.6°F8.7°C 87% 5.0 mph SW8.0 kmh SW 13.0 mph20.9 kmh 29.74 in1007.1 mb 0.00 in0.0 mm 0.00 in0.0 mm 0.11 in2.8 mm
07:03 PM 52.6°F11.4°C 47.6°F8.7°C 87% 3.0 mph WSW4.8 kmh WSW 13.0 mph20.9 kmh 29.74 in1007.1 mb 0.00 in0.0 mm 0.00 in0.0 mm 0.11 in2.8 mm
07:05 PM 52.7°F11.5°C 47.7°F8.7°C 87% 1.0 mph SW1.6 kmh SW 13.0 mph20.9 kmh 29.74 in1007.1 mb 0.00 in0.0 mm 0.00 in0.0 mm 0.11 in2.8 mm
07:07 PM 52.8°F11.6°C 47.8°F8.8°C 87% 6.0 mph S9.7 kmh S 10.0 mph16.1 kmh 29.74 in1007.1 mb 0.00 in0.0 mm 0.00 in0.0 mm 0.11 in2.8 mm
07:09 PM 52.8°F11.6°C 47.5°F8.6°C 86% 8.0 mph SSW12.9 kmh SSW 12.0 mph19.3 kmh 29.74 in1007.1 mb 0.00 in0.0 mm 0.00 in0.0 mm 0.11 in2.8 mm
07:11 PM 53.0°F11.7°C 47.7°F8.7°C 86% 3.0 mph WSW4.8 kmh WSW 12.0 mph19.3 kmh 29.74 in1007.1 mb 0.00 in0.0 mm 0.00 in0.0 mm 0.11 in2.8 mm
07:13 PM 53.0°F11.7°C 47.7°F8.7°C 86% 2.0 mph WSW3.2 kmh WSW 12.0 mph19.3 kmh 29.74 in1007.1 mb 0.00 in0.0 mm 0.00 in0.0 mm 0.11 in2.8 mm
07:15 PM 53.1°F11.7°C 47.8°F8.8°C 86% 4.0 mph SE6.4 kmh SE 12.0 mph19.3 kmh 29.73 in1006.8 mb 0.00 in0.0 mm 0.00 in0.0 mm 0.11 in2.8 mm
07:17 PM 53.1°F11.7°C 47.8°F8.8°C 86% 3.0 mph SE4.8 kmh SE 12.0 mph19.3 kmh 29.73 in1006.8 mb 0.00 in0.0 mm 0.00 in0.0 mm 0.11 in2.8 mm
07:19 PM 53.1°F11.7°C 47.8°F8.8°C 86% 5.0 mph SSW8.0 kmh SSW 12.0 mph19.3 kmh 29.73 in1006.8 mb 0.00 in0.0 mm 0.00 in0.0 mm 0.11 in2.8 mm
07:21 PM 53.1°F11.7°C 47.8°F8.8°C 86% 9.0 mph S14.5 kmh S 12.0 mph19.3 kmh 29.73 in1006.8 mb 0.00 in0.0 mm 0.00 in0.0 mm 0.11 in2.8 mm
07:23 PM 53.1°F11.7°C 47.4°F8.6°C 85% 5.0 mph SSW8.0 kmh SSW 12.0 mph19.3 kmh 29.73 in1006.8 mb 0.00 in0.0 mm 0.00 in0.0 mm 0.11 in2.8 mm
07:25 PM 53.2°F11.8°C 47.5°F8.6°C 85% 1.0 mph SW1.6 kmh SW 12.0 mph19.3 kmh 29.73 in1006.8 mb 0.00 in0.0 mm 0.00 in0.0 mm 0.11 in2.8 mm
07:27 PM 53.2°F11.8°C 47.5°F8.6°C 85% 2.0 mph SSW3.2 kmh SSW 12.0 mph19.3 kmh 29.73 in1006.8 mb 0.00 in0.0 mm 0.00 in0.0 mm 0.11 in2.8 mm
07:29 PM 53.1°F11.7°C 47.4°F8.6°C 85% 1.0 mph S1.6 kmh S 9.0 mph14.5 kmh 29.73 in1006.8 mb 0.00 in0.0 mm 0.00 in0.0 mm 0.11 in2.8 mm
07:31 PM 53.1°F11.7°C 47.4°F8.6°C 85% 4.0 mph SW6.4 kmh SW 9.0 mph14.5 kmh 29.73 in1006.8 mb 0.00 in0.0 mm 0.00 in0.0 mm 0.11 in2.8 mm
07:33 PM 53.1°F11.7°C 47.4°F8.6°C 85% 10.0 mph SW16.1 kmh SW 10.0 mph16.1 kmh 29.73 in1006.8 mb 0.00 in0.0 mm 0.00 in0.0 mm 0.11 in2.8 mm
07:35 PM 53.1°F11.7°C 47.4°F8.6°C 85% 8.0 mph SE12.9 kmh SE 10.0 mph16.1 kmh 29.72 in1006.4 mb 0.00 in0.0 mm 0.00 in0.0 mm 0.11 in2.8 mm
07:37 PM 53.2°F11.8°C 47.5°F8.6°C 85% 6.0 mph E9.7 kmh E 10.0 mph16.1 kmh 29.72 in1006.4 mb 0.00 in0.0 mm 0.00 in0.0 mm 0.11 in2.8 mm
07:39 PM 53.2°F11.8°C 47.5°F8.6°C 85% 2.0 mph SSW3.2 kmh SSW 11.0 mph17.7 kmh 29.73 in1006.8 mb 0.00 in0.0 mm 0.00 in0.0 mm 0.11 in2.8 mm
07:41 PM 53.3°F11.8°C 47.6°F8.7°C 85% 4.0 mph SSW6.4 kmh SSW 11.0 mph17.7 kmh 29.72 in1006.4 mb 0.00 in0.0 mm 0.00 in0.0 mm 0.11 in2.8 mm
07:43 PM 53.3°F11.8°C 47.6°F8.7°C 85% 6.0 mph SSE9.7 kmh SSE 11.0 mph17.7 kmh 29.72 in1006.4 mb 0.00 in0.0 mm 0.00 in0.0 mm 0.11 in2.8 mm
07:45 PM 53.4°F11.9°C 47.7°F8.7°C 85% 9.0 mph SW14.5 kmh SW 11.0 mph17.7 kmh 29.72 in1006.4 mb 0.00 in0.0 mm 0.00 in0.0 mm 0.11 in2.8 mm
07:47 PM 53.5°F11.9°C 47.8°F8.8°C 85% 1.0 mph S1.6 kmh S 11.0 mph17.7 kmh 29.72 in1006.4 mb 0.00 in0.0 mm 0.00 in0.0 mm 0.11 in2.8 mm
07:49 PM 53.5°F11.9°C 47.8°F8.8°C 85% 5.0 mph S8.0 kmh S 11.0 mph17.7 kmh 29.71 in1006.1 mb 0.00 in0.0 mm 0.00 in0.0 mm 0.11 in2.8 mm
07:51 PM 53.5°F11.9°C 47.8°F8.8°C 85% 2.0 mph SSE3.2 kmh SSE 11.0 mph17.7 kmh 29.71 in1006.1 mb 0.00 in0.0 mm 0.00 in0.0 mm 0.11 in2.8 mm
07:53 PM 53.5°F11.9°C 47.8°F8.8°C 85% 3.0 mph S4.8 kmh S 14.0 mph22.5 kmh 29.71 in1006.1 mb 0.00 in0.0 mm 0.00 in0.0 mm 0.11 in2.8 mm
07:55 PM 53.6°F12.0°C 47.9°F8.8°C 85% 1.0 mph SW1.6 kmh SW 14.0 mph22.5 kmh 29.71 in1006.1 mb 0.00 in0.0 mm 0.00 in0.0 mm 0.11 in2.8 mm
07:57 PM 53.5°F11.9°C 47.8°F8.8°C 85% 3.0 mph SSE4.8 kmh SSE 14.0 mph22.5 kmh 29.71 in1006.1 mb 0.00 in0.0 mm 0.00 in0.0 mm 0.11 in2.8 mm
07:59 PM 53.5°F11.9°C 47.8°F8.8°C 85% 4.0 mph SSE6.4 kmh SSE 14.0 mph22.5 kmh 29.71 in1006.1 mb 0.00 in0.0 mm 0.00 in0.0 mm 0.11 in2.8 mm
08:01 PM 53.4°F11.9°C 47.7°F8.7°C 85% 2.0 mph WSW3.2 kmh WSW 14.0 mph22.5 kmh 29.71 in1006.1 mb 0.00 in0.0 mm 0.00 in0.0 mm 0.11 in2.8 mm
08:03 PM 53.4°F11.9°C 47.7°F8.7°C 85% 4.0 mph S6.4 kmh S 14.0 mph22.5 kmh 29.71 in1006.1 mb 0.00 in0.0 mm 0.00 in0.0 mm 0.11 in2.8 mm
08:05 PM 53.4°F11.9°C 47.7°F8.7°C 85% 2.0 mph SSW3.2 kmh SSW 14.0 mph22.5 kmh 29.71 in1006.1 mb 0.00 in0.0 mm 0.00 in0.0 mm 0.11 in2.8 mm
08:07 PM 53.4°F11.9°C 47.7°F8.7°C 85% 9.0 mph SW14.5 kmh SW 14.0 mph22.5 kmh 29.70 in1005.8 mb 0.00 in0.0 mm 0.00 in0.0 mm 0.11 in2.8 mm
08:09 PM 53.4°F11.9°C 47.7°F8.7°C 85% 7.0 mph SW11.3 kmh SW 14.0 mph22.5 kmh 29.70 in1005.8 mb 0.00 in0.0 mm 0.00 in0.0 mm 0.11 in2.8 mm
08:11 PM 53.4°F11.9°C 47.7°F8.7°C 85% 2.0 mph SSW3.2 kmh SSW 14.0 mph22.5 kmh 29.70 in1005.8 mb 0.00 in0.0 mm 0.00 in0.0 mm 0.11 in2.8 mm
08:13 PM 53.4°F11.9°C 47.7°F8.7°C 85% 2.0 mph SE3.2 kmh SE 9.0 mph14.5 kmh 29.70 in1005.8 mb 0.00 in0.0 mm 0.00 in0.0 mm 0.11 in2.8 mm
08:15 PM 53.4°F11.9°C 47.7°F8.7°C 85% 2.0 mph WSW3.2 kmh WSW 9.0 mph14.5 kmh 29.69 in1005.4 mb 0.00 in0.0 mm 0.00 in0.0 mm 0.11 in2.8 mm
08:17 PM 53.3°F11.8°C 47.6°F8.7°C 85% 1.0 mph SE1.6 kmh SE 9.0 mph14.5 kmh 29.69 in1005.4 mb 0.00 in0.0 mm 0.00 in0.0 mm 0.11 in2.8 mm
08:19 PM 53.3°F11.8°C 47.6°F8.7°C 85% 3.0 mph S4.8 kmh S 9.0 mph14.5 kmh 29.69 in1005.4 mb 0.00 in0.0 mm 0.00 in0.0 mm 0.11 in2.8 mm
08:21 PM 53.3°F11.8°C 47.6°F8.7°C 85% 1.0 mph S1.6 kmh S 9.0 mph14.5 kmh 29.70 in1005.8 mb 0.00 in0.0 mm 0.00 in0.0 mm 0.11 in2.8 mm
08:23 PM 53.3°F11.8°C 47.6°F8.7°C 85% 1.0 mph SSW1.6 kmh SSW 7.0 mph11.3 kmh 29.69 in1005.4 mb 0.00 in0.0 mm 0.00 in0.0 mm 0.11 in2.8 mm
08:25 PM 53.2°F11.8°C 47.5°F8.6°C 85% 2.0 mph ESE3.2 kmh ESE 7.0 mph11.3 kmh 29.69 in1005.4 mb 0.00 in0.0 mm 0.00 in0.0 mm 0.11 in2.8 mm
08:27 PM 53.2°F11.8°C 47.5°F8.6°C 85% 4.0 mph S6.4 kmh S 7.0 mph11.3 kmh 29.69 in1005.4 mb 0.00 in0.0 mm 0.00 in0.0 mm 0.11 in2.8 mm
08:29 PM 53.1°F11.7°C 47.4°F8.6°C 85% 2.0 mph S3.2 kmh S 7.0 mph11.3 kmh 29.69 in1005.4 mb 0.00 in0.0 mm 0.00 in0.0 mm 0.11 in2.8 mm
08:31 PM 53.1°F11.7°C 47.4°F8.6°C 85% 1.0 mph WSW1.6 kmh WSW 7.0 mph11.3 kmh 29.68 in1005.1 mb 0.00 in0.0 mm 0.00 in0.0 mm 0.11 in2.8 mm
08:33 PM 53.1°F11.7°C 47.4°F8.6°C 85% 1.0 mph SSW1.6 kmh SSW 7.0 mph11.3 kmh 29.68 in1005.1 mb 0.00 in0.0 mm 0.00 in0.0 mm 0.11 in2.8 mm
08:35 PM 53.1°F11.7°C 47.4°F8.6°C 85% 5.0 mph SE8.0 kmh SE 8.0 mph12.9 kmh 29.68 in1005.1 mb 0.00 in0.0 mm 0.00 in0.0 mm 0.11 in2.8 mm
08:37 PM 53.1°F11.7°C 47.4°F8.6°C 85% Calm Calm 8.0 mph12.9 kmh 29.68 in1005.1 mb 0.00 in0.0 mm 0.00 in0.0 mm 0.11 in2.8 mm
08:39 PM 53.1°F11.7°C 47.4°F8.6°C 85% 2.0 mph SSE3.2 kmh SSE 8.0 mph12.9 kmh 29.68 in1005.1 mb 0.00 in0.0 mm 0.00 in0.0 mm 0.11 in2.8 mm
08:41 PM 53.1°F11.7°C 47.4°F8.6°C 85% 3.0 mph S4.8 kmh S 8.0 mph12.9 kmh 29.68 in1005.1 mb 0.00 in0.0 mm 0.00 in0.0 mm 0.11 in2.8 mm
08:43 PM 53.1°F11.7°C 47.4°F8.6°C 85% 2.0 mph S3.2 kmh S 8.0 mph12.9 kmh 29.68 in1005.1 mb 0.00 in0.0 mm 0.00 in0.0 mm 0.11 in2.8 mm
08:45 PM 53.1°F11.7°C 47.4°F8.6°C 85% 4.0 mph SE6.4 kmh SE 8.0 mph12.9 kmh 29.68 in1005.1 mb 0.00 in0.0 mm 0.00 in0.0 mm 0.11 in2.8 mm
08:47 PM 53.1°F11.7°C 47.4°F8.6°C 85% Calm Calm 8.0 mph12.9 kmh 29.68 in1005.1 mb 0.00 in0.0 mm 0.00 in0.0 mm 0.11 in2.8 mm
08:49 PM 53.1°F11.7°C 47.4°F8.6°C 85% 2.0 mph S3.2 kmh S 8.0 mph12.9 kmh 29.67 in1004.7 mb 0.00 in0.0 mm 0.00 in0.0 mm 0.11 in2.8 mm
08:51 PM 53.1°F11.7°C 47.4°F8.6°C 85% 2.0 mph SE3.2 kmh SE 8.0 mph12.9 kmh 29.67 in1004.7 mb 0.00 in0.0 mm 0.00 in0.0 mm 0.11 in2.8 mm
08:53 PM 53.1°F11.7°C 47.4°F8.6°C 85% 1.0 mph SSW1.6 kmh SSW 8.0 mph12.9 kmh 29.67 in1004.7 mb 0.00 in0.0 mm 0.00 in0.0 mm 0.11 in2.8 mm
08:55 PM 53.0°F11.7°C 47.3°F8.5°C 85% Calm Calm 7.0 mph11.3 kmh 29.67 in1004.7 mb 0.00 in0.0 mm 0.00 in0.0 mm 0.11 in2.8 mm
08:57 PM 53.0°F11.7°C 47.3°F8.5°C 85% 7.0 mph SSE11.3 kmh SSE 7.0 mph11.3 kmh 29.67 in1004.7 mb 0.00 in0.0 mm 0.00 in0.0 mm 0.11 in2.8 mm
08:59 PM 53.0°F11.7°C 47.3°F8.5°C 85% 1.0 mph S1.6 kmh S 8.0 mph12.9 kmh 29.67 in1004.7 mb 0.00 in0.0 mm 0.00 in0.0 mm 0.11 in2.8 mm
09:01 PM 53.1°F11.7°C 47.4°F8.6°C 85% 1.0 mph S1.6 kmh S 8.0 mph12.9 kmh 29.67 in1004.7 mb 0.00 in0.0 mm 0.00 in0.0 mm 0.11 in2.8 mm
09:03 PM 53.1°F11.7°C 47.4°F8.6°C 85% 2.0 mph S3.2 kmh S 8.0 mph12.9 kmh 29.67 in1004.7 mb 0.00 in0.0 mm 0.00 in0.0 mm 0.11 in2.8 mm
09:05 PM 53.0°F11.7°C 47.0°F8.3°C 84% 7.0 mph SE11.3 kmh SE 8.0 mph12.9 kmh 29.66 in1004.4 mb 0.00 in0.0 mm 0.00 in0.0 mm 0.11 in2.8 mm
09:07 PM 53.1°F11.7°C 47.1°F8.4°C 84% 3.0 mph SSE4.8 kmh SSE 8.0 mph12.9 kmh 29.66 in1004.4 mb 0.00 in0.0 mm 0.00 in0.0 mm 0.11 in2.8 mm
09:09 PM 53.1°F11.7°C 47.1°F8.4°C 84% 2.0 mph SE3.2 kmh SE 8.0 mph12.9 kmh 29.66 in1004.4 mb 0.00 in0.0 mm 0.00 in0.0 mm 0.11 in2.8 mm
09:11 PM 53.1°F11.7°C 47.1°F8.4°C 84% 1.0 mph SW1.6 kmh SW 8.0 mph12.9 kmh 29.66 in1004.4 mb 0.00 in0.0 mm 0.00 in0.0 mm 0.11 in2.8 mm
09:13 PM 53.1°F11.7°C 47.1°F8.4°C 84% 5.0 mph SSE8.0 kmh SSE 8.0 mph12.9 kmh 29.66 in1004.4 mb 0.00 in0.0 mm 0.00 in0.0 mm 0.11 in2.8 mm
09:15 PM 53.0°F11.7°C 47.0°F8.3°C 84% 1.0 mph SSE1.6 kmh SSE 8.0 mph12.9 kmh 29.66 in1004.4 mb 0.00 in0.0 mm 0.00 in0.0 mm 0.11 in2.8 mm
09:17 PM 53.1°F11.7°C 47.1°F8.4°C 84% 2.0 mph E3.2 kmh E 8.0 mph12.9 kmh 29.66 in1004.4 mb 0.00 in0.0 mm 0.00 in0.0 mm 0.11 in2.8 mm
09:19 PM 53.1°F11.7°C 47.1°F8.4°C 84% 3.0 mph SSW4.8 kmh SSW 6.0 mph9.7 kmh 29.66 in1004.4 mb 0.00 in0.0 mm 0.00 in0.0 mm 0.11 in2.8 mm
09:21 PM 53.0°F11.7°C 47.0°F8.3°C 84% 4.0 mph S6.4 kmh S 6.0 mph9.7 kmh 29.66 in1004.4 mb 0.00 in0.0 mm 0.00 in0.0 mm 0.11 in2.8 mm
09:23 PM 53.0°F11.7°C 47.0°F8.3°C 84% 2.0 mph S3.2 kmh S 6.0 mph9.7 kmh 29.66 in1004.4 mb 0.00 in0.0 mm 0.00 in0.0 mm 0.11 in2.8 mm
09:25 PM 53.1°F11.7°C 47.1°F8.4°C 84% 5.0 mph S8.0 kmh S 6.0 mph9.7 kmh 29.66 in1004.4 mb 0.00 in0.0 mm 0.00 in0.0 mm 0.11 in2.8 mm
09:27 PM 53.1°F11.7°C 47.1°F8.4°C 84% 4.0 mph E6.4 kmh E 6.0 mph9.7 kmh 29.66 in1004.4 mb 0.00 in0.0 mm 0.00 in0.0 mm 0.11 in2.8 mm
09:29 PM 53.2°F11.8°C 46.9°F8.3°C 83% 4.0 mph WSW6.4 kmh WSW 8.0 mph12.9 kmh 29.66 in1004.4 mb 0.00 in0.0 mm 0.00 in0.0 mm 0.11 in2.8 mm
09:31 PM 53.2°F11.8°C 46.9°F8.3°C 83% 1.0 mph S1.6 kmh S 8.0 mph12.9 kmh 29.65 in1004.1 mb 0.00 in0.0 mm 0.00 in0.0 mm 0.11 in2.8 mm
09:33 PM 53.3°F11.8°C 47.0°F8.3°C 83% 3.0 mph S4.8 kmh S 8.0 mph12.9 kmh 29.65 in1004.1 mb 0.00 in0.0 mm 0.00 in0.0 mm 0.11 in2.8 mm
09:35 PM 53.3°F11.8°C 47.0°F8.3°C 83% 1.0 mph S1.6 kmh S 8.0 mph12.9 kmh 29.65 in1004.1 mb 0.00 in0.0 mm 0.00 in0.0 mm 0.11 in2.8 mm
09:37 PM 53.3°F11.8°C 47.0°F8.3°C 83% 4.0 mph SE6.4 kmh SE 8.0 mph12.9 kmh 29.65 in1004.1 mb 0.00 in0.0 mm 0.00 in0.0 mm 0.11 in2.8 mm
09:39 PM 53.3°F11.8°C 47.0°F8.3°C 83% 4.0 mph SSW6.4 kmh SSW 9.0 mph14.5 kmh 29.65 in1004.1 mb 0.00 in0.0 mm 0.00 in0.0 mm 0.11 in2.8 mm
09:41 PM 53.3°F11.8°C 47.0°F8.3°C 83% 2.0 mph SE3.2 kmh SE 9.0 mph14.5 kmh 29.64 in1003.7 mb 0.00 in0.0 mm 0.00 in0.0 mm 0.11 in2.8 mm
09:43 PM 53.4°F11.9°C 46.7°F8.2°C 82% 7.0 mph S11.3 kmh S 9.0 mph14.5 kmh 29.64 in1003.7 mb 0.00 in0.0 mm 0.00 in0.0 mm 0.11 in2.8 mm
09:45 PM 53.5°F11.9°C 46.8°F8.2°C 82% 3.0 mph SE4.8 kmh SE 9.0 mph14.5 kmh 29.64 in1003.7 mb 0.00 in0.0 mm 0.00 in0.0 mm 0.11 in2.8 mm
09:49 PM 53.6°F12.0°C 46.9°F8.3°C 82% 2.0 mph S3.2 kmh S 9.0 mph14.5 kmh 29.64 in1003.7 mb 0.00 in0.0 mm 0.00 in0.0 mm 0.11 in2.8 mm
09:51 PM 53.6°F12.0°C 46.6°F8.1°C 81% 8.0 mph ESE12.9 kmh ESE 11.0 mph17.7 kmh 29.64 in1003.7 mb 0.00 in0.0 mm 0.00 in0.0 mm 0.11 in2.8 mm
09:53 PM 53.7°F12.1°C 46.7°F8.2°C 81% 1.0 mph SW1.6 kmh SW 11.0 mph17.7 kmh 29.64 in1003.7 mb 0.00 in0.0 mm 0.00 in0.0 mm 0.11 in2.8 mm
09:55 PM 53.8°F12.1°C 46.8°F8.2°C 81% 3.0 mph S4.8 kmh S 13.0 mph20.9 kmh 29.63 in1003.4 mb 0.00 in0.0 mm 0.00 in0.0 mm 0.11 in2.8 mm
09:57 PM 53.9°F12.2°C 46.9°F8.3°C 81% 1.0 mph SW1.6 kmh SW 13.0 mph20.9 kmh 29.63 in1003.4 mb 0.00 in0.0 mm 0.00 in0.0 mm 0.11 in2.8 mm
09:59 PM 53.9°F12.2°C 46.9°F8.3°C 81% 7.0 mph SSE11.3 kmh SSE 13.0 mph20.9 kmh 29.63 in1003.4 mb 0.00 in0.0 mm 0.00 in0.0 mm 0.11 in2.8 mm
10:01 PM 54.0°F12.2°C 46.6°F8.1°C 80% 3.0 mph ESE4.8 kmh ESE 13.0 mph20.9 kmh 29.63 in1003.4 mb 0.00 in0.0 mm 0.00 in0.0 mm 0.11 in2.8 mm
10:03 PM 54.0°F12.2°C 46.6°F8.1°C 80% 1.0 mph S1.6 kmh S 13.0 mph20.9 kmh 29.63 in1003.4 mb 0.00 in0.0 mm 0.00 in0.0 mm 0.11 in2.8 mm
10:05 PM 54.0°F12.2°C 46.6°F8.1°C 80% 1.0 mph SW1.6 kmh SW 13.0 mph20.9 kmh 29.63 in1003.4 mb 0.00 in0.0 mm 0.00 in0.0 mm 0.11 in2.8 mm
10:07 PM 54.0°F12.2°C 46.6°F8.1°C 80% 1.0 mph SW1.6 kmh SW 13.0 mph20.9 kmh 29.63 in1003.4 mb 0.00 in0.0 mm 0.00 in0.0 mm 0.11 in2.8 mm
10:09 PM 53.9°F12.2°C 46.9°F8.3°C 81% 2.0 mph S3.2 kmh S 13.0 mph20.9 kmh 29.63 in1003.4 mb 0.00 in0.0 mm 0.00 in0.0 mm 0.11 in2.8 mm
10:11 PM 53.9°F12.2°C 46.5°F8.1°C 80% 1.0 mph SW1.6 kmh SW 13.0 mph20.9 kmh 29.62 in1003.0 mb 0.00 in0.0 mm 0.00 in0.0 mm 0.11 in2.8 mm
10:13 PM 53.9°F12.2°C 46.5°F8.1°C 80% 4.0 mph S6.4 kmh S 13.0 mph20.9 kmh 29.62 in1003.0 mb 0.00 in0.0 mm 0.00 in0.0 mm 0.11 in2.8 mm
10:15 PM 53.9°F12.2°C 46.5°F8.1°C 80% 2.0 mph S3.2 kmh S 8.0 mph12.9 kmh 29.62 in1003.0 mb 0.00 in0.0 mm 0.00 in0.0 mm 0.11 in2.8 mm
10:17 PM 53.9°F12.2°C 46.5°F8.1°C 80% 6.0 mph SSW9.7 kmh SSW 8.0 mph12.9 kmh 29.62 in1003.0 mb 0.00 in0.0 mm 0.00 in0.0 mm 0.11 in2.8 mm
10:19 PM 53.9°F12.2°C 46.5°F8.1°C 80% 4.0 mph S6.4 kmh S 8.0 mph12.9 kmh 29.62 in1003.0 mb 0.00 in0.0 mm 0.00 in0.0 mm 0.11 in2.8 mm
10:21 PM 53.9°F12.2°C 46.9°F8.3°C 81% 5.0 mph S8.0 kmh S 8.0 mph12.9 kmh 29.61 in1002.7 mb 0.00 in0.0 mm 0.00 in0.0 mm 0.11 in2.8 mm
10:23 PM 53.9°F12.2°C 46.9°F8.3°C 81% 1.0 mph SSE1.6 kmh SSE 8.0 mph12.9 kmh 29.61 in1002.7 mb 0.00 in0.0 mm 0.00 in0.0 mm 0.11 in2.8 mm
10:25 PM 53.8°F12.1°C 46.8°F8.2°C 81% 1.0 mph W1.6 kmh W 8.0 mph12.9 kmh 29.61 in1002.7 mb 0.00 in0.0 mm 0.00 in0.0 mm 0.11 in2.8 mm
10:27 PM 53.8°F12.1°C 46.8°F8.2°C 81% Calm Calm 8.0 mph12.9 kmh 29.61 in1002.7 mb 0.00 in0.0 mm 0.00 in0.0 mm 0.11 in2.8 mm
10:29 PM 53.7°F12.1°C 46.7°F8.2°C 81% 4.0 mph SSW6.4 kmh SSW 8.0 mph12.9 kmh 29.61 in1002.7 mb 0.00 in0.0 mm 0.00 in0.0 mm 0.11 in2.8 mm
10:31 PM 53.6°F12.0°C 46.9°F8.3°C 82% 5.0 mph SE8.0 kmh SE 8.0 mph12.9 kmh 29.62 in1003.0 mb 0.00 in0.0 mm 0.00 in0.0 mm 0.11 in2.8 mm
10:33 PM 53.6°F12.0°C 46.6°F8.1°C 81% 1.0 mph S1.6 kmh S 8.0 mph12.9 kmh 29.61 in1002.7 mb 0.00 in0.0 mm 0.00 in0.0 mm 0.11 in2.8 mm
10:35 PM 53.5°F11.9°C 46.8°F8.2°C 82% 3.0 mph SSE4.8 kmh SSE 9.0 mph14.5 kmh 29.61 in1002.7 mb 0.00 in0.0 mm 0.00 in0.0 mm 0.11 in2.8 mm
10:37 PM 53.5°F11.9°C 47.1°F8.4°C 83% 3.0 mph SW4.8 kmh SW 9.0 mph14.5 kmh 29.62 in1003.0 mb 0.00 in0.0 mm 0.00 in0.0 mm 0.11 in2.8 mm
10:39 PM 53.5°F11.9°C 47.1°F8.4°C 83% 3.0 mph S4.8 kmh S 9.0 mph14.5 kmh 29.61 in1002.7 mb 0.00 in0.0 mm 0.00 in0.0 mm 0.11 in2.8 mm
10:41 PM 53.4°F11.9°C 47.1°F8.4°C 83% 6.0 mph S9.7 kmh S 9.0 mph14.5 kmh 29.61 in1002.7 mb 0.00 in0.0 mm 0.00 in0.0 mm 0.11 in2.8 mm
10:43 PM 53.3°F11.8°C 47.0°F8.3°C 83% 4.0 mph S6.4 kmh S 9.0 mph14.5 kmh 29.61 in1002.7 mb 0.00 in0.0 mm 0.00 in0.0 mm 0.11 in2.8 mm
10:45 PM 53.2°F11.8°C 47.2°F8.4°C 84% 3.0 mph S4.8 kmh S 9.0 mph14.5 kmh 29.61 in1002.7 mb 0.00 in0.0 mm 0.00 in0.0 mm 0.11 in2.8 mm
10:47 PM 53.2°F11.8°C 46.9°F8.3°C 83% 2.0 mph N3.2 kmh N 9.0 mph14.5 kmh 29.61 in1002.7 mb 0.00 in0.0 mm 0.00 in0.0 mm 0.11 in2.8 mm
10:49 PM 53.2°F11.8°C 46.9°F8.3°C 83% 2.0 mph SW3.2 kmh SW 9.0 mph14.5 kmh 29.61 in1002.7 mb 0.00 in0.0 mm 0.00 in0.0 mm 0.11 in2.8 mm
10:51 PM 53.2°F11.8°C 46.9°F8.3°C 83% 3.0 mph SSW4.8 kmh SSW 9.0 mph14.5 kmh 29.61 in1002.7 mb 0.00 in0.0 mm 0.00 in0.0 mm 0.11 in2.8 mm
10:53 PM 53.2°F11.8°C 46.9°F8.3°C 83% 3.0 mph S4.8 kmh S 9.0 mph14.5 kmh 29.61 in1002.7 mb 0.00 in0.0 mm 0.00 in0.0 mm 0.11 in2.8 mm
10:55 PM 53.2°F11.8°C 46.9°F8.3°C 83% 1.0 mph SSE1.6 kmh SSE 8.0 mph12.9 kmh 29.60 in1002.4 mb 0.00 in0.0 mm 0.00 in0.0 mm 0.11 in2.8 mm
10:57 PM 53.2°F11.8°C 46.9°F8.3°C 83% 3.0 mph SE4.8 kmh SE 8.0 mph12.9 kmh 29.60 in1002.4 mb 0.00 in0.0 mm 0.00 in0.0 mm 0.11 in2.8 mm
10:59 PM 53.2°F11.8°C 46.9°F8.3°C 83% 2.0 mph WSW3.2 kmh WSW 8.0 mph12.9 kmh 29.60 in1002.4 mb 0.00 in0.0 mm 0.00 in0.0 mm 0.11 in2.8 mm
11:01 PM 53.2°F11.8°C 46.9°F8.3°C 83% 5.0 mph S8.0 kmh S 8.0 mph12.9 kmh 29.60 in1002.4 mb 0.00 in0.0 mm 0.00 in0.0 mm 0.11 in2.8 mm
11:03 PM 53.2°F11.8°C 47.2°F8.4°C 84% 2.0 mph SW3.2 kmh SW 8.0 mph12.9 kmh 29.61 in1002.7 mb 0.70 in17.8 mm 21.00 in533.4 mm 0.14 in3.6 mm
11:05 PM 53.2°F11.8°C 47.5°F8.6°C 85% 2.0 mph S3.2 kmh S 7.0 mph11.3 kmh 29.60 in1002.4 mb 0.50 in12.7 mm 0.00 in0.0 mm 0.15 in3.8 mm
11:07 PM 53.1°F11.7°C 47.4°F8.6°C 85% 4.0 mph SSE6.4 kmh SSE 7.0 mph11.3 kmh 29.60 in1002.4 mb 0.24 in6.1 mm 0.00 in0.0 mm 0.16 in4.1 mm
11:09 PM 53.0°F11.7°C 47.7°F8.7°C 86% 1.0 mph SSW1.6 kmh SSW 7.0 mph11.3 kmh 29.59 in1002.0 mb 0.14 in3.6 mm 0.00 in0.0 mm 0.16 in4.1 mm
11:11 PM 52.8°F11.6°C 47.5°F8.6°C 86% 3.0 mph SW4.8 kmh SW 7.0 mph11.3 kmh 29.59 in1002.0 mb 0.09 in2.3 mm 0.00 in0.0 mm 0.16 in4.1 mm
11:13 PM 52.7°F11.5°C 47.7°F8.7°C 87% 2.0 mph S3.2 kmh S 7.0 mph11.3 kmh 29.59 in1002.0 mb 0.07 in1.8 mm 0.00 in0.0 mm 0.16 in4.1 mm
11:15 PM 52.5°F11.4°C 47.5°F8.6°C 87% 2.0 mph SE3.2 kmh SE 8.0 mph12.9 kmh 29.59 in1002.0 mb 0.06 in1.5 mm 0.00 in0.0 mm 0.16 in4.1 mm
11:17 PM 52.3°F11.3°C 47.6°F8.7°C 88% 2.0 mph SE3.2 kmh SE 8.0 mph12.9 kmh 29.58 in1001.7 mb 0.05 in1.3 mm 0.00 in0.0 mm 0.16 in4.1 mm
11:19 PM 52.2°F11.2°C 47.5°F8.6°C 88% 1.0 mph SSE1.6 kmh SSE 8.0 mph12.9 kmh 29.58 in1001.7 mb 0.04 in1.0 mm 0.00 in0.0 mm 0.17 in4.3 mm
11:21 PM 52.0°F11.1°C 47.6°F8.7°C 89% 1.0 mph ESE1.6 kmh ESE 8.0 mph12.9 kmh 29.58 in1001.7 mb 0.27 in6.9 mm 6.90 in175.3 mm 0.18 in4.6 mm
11:23 PM 51.9°F11.1°C 47.5°F8.6°C 89% 2.0 mph WSW3.2 kmh WSW 8.0 mph12.9 kmh 29.58 in1001.7 mb 0.15 in3.8 mm 0.00 in0.0 mm 0.18 in4.6 mm
11:25 PM 51.7°F10.9°C 47.3°F8.5°C 89% 1.0 mph WSW1.6 kmh WSW 8.0 mph12.9 kmh 29.58 in1001.7 mb 0.10 in2.5 mm 0.00 in0.0 mm 0.18 in4.6 mm
11:27 PM 51.6°F10.9°C 47.5°F8.6°C 90% 1.0 mph SSW1.6 kmh SSW 8.0 mph12.9 kmh 29.58 in1001.7 mb 0.07 in1.8 mm 0.00 in0.0 mm 0.18 in4.6 mm
11:29 PM 51.5°F10.8°C 47.5°F8.6°C 90% 1.0 mph SSW1.6 kmh SSW 8.0 mph12.9 kmh 29.58 in1001.7 mb 0.06 in1.5 mm 0.00 in0.0 mm 0.18 in4.6 mm
11:31 PM 51.4°F10.8°C 47.4°F8.6°C 90% Calm Calm 8.0 mph12.9 kmh 29.58 in1001.7 mb 0.05 in1.3 mm 0.00 in0.0 mm 0.18 in4.6 mm
11:33 PM 51.3°F10.7°C 47.6°F8.7°C 91% 3.0 mph SW4.8 kmh SW 8.0 mph12.9 kmh 29.58 in1001.7 mb 0.04 in1.0 mm 0.00 in0.0 mm 0.18 in4.6 mm
11:35 PM 51.2°F10.7°C 47.5°F8.6°C 91% 2.0 mph W3.2 kmh W 6.0 mph9.7 kmh 29.59 in1002.0 mb 0.28 in7.1 mm 7.20 in182.9 mm 0.19 in4.8 mm
11:37 PM 51.2°F10.7°C 47.5°F8.6°C 91% 1.0 mph WSW1.6 kmh WSW 6.0 mph9.7 kmh 29.58 in1001.7 mb 0.24 in6.1 mm 0.00 in0.0 mm 0.20 in5.1 mm
11:39 PM 51.1°F10.6°C 47.4°F8.6°C 91% 2.0 mph SW3.2 kmh SW 8.0 mph12.9 kmh 29.58 in1001.7 mb 0.13 in3.3 mm 0.00 in0.0 mm 0.20 in5.1 mm
11:41 PM 51.1°F10.6°C 47.4°F8.6°C 91% Calm Calm 8.0 mph12.9 kmh 29.57 in1001.4 mb 0.09 in2.3 mm 0.00 in0.0 mm 0.20 in5.1 mm
11:43 PM 51.1°F10.6°C 47.4°F8.6°C 91% 4.0 mph W6.4 kmh W 8.0 mph12.9 kmh 29.57 in1001.4 mb 0.07 in1.8 mm 0.00 in0.0 mm 0.20 in5.1 mm
11:45 PM 51.0°F10.6°C 47.3°F8.5°C 91% 4.0 mph WSW6.4 kmh WSW 8.0 mph12.9 kmh 29.58 in1001.7 mb 0.06 in1.5 mm 0.00 in0.0 mm 0.20 in5.1 mm
11:47 PM 51.0°F10.6°C 47.6°F8.7°C 92% 1.0 mph WSW1.6 kmh WSW 8.0 mph12.9 kmh 29.58 in1001.7 mb 0.06 in1.5 mm 0.00 in0.0 mm 0.21 in5.3 mm
11:49 PM 51.0°F10.6°C 47.6°F8.7°C 92% 2.0 mph W3.2 kmh W 8.0 mph12.9 kmh 29.58 in1001.7 mb 0.15 in3.8 mm 2.70 in68.6 mm 0.22 in5.6 mm
11:51 PM 50.9°F10.5°C 47.5°F8.6°C 92% 3.0 mph WSW4.8 kmh WSW 8.0 mph12.9 kmh 29.59 in1002.0 mb 0.15 in3.8 mm 0.00 in0.0 mm 0.22 in5.6 mm
11:53 PM 50.8°F10.4°C 47.4°F8.6°C 92% 7.0 mph WNW11.3 kmh WNW 8.0 mph12.9 kmh 29.61 in1002.7 mb 0.21 in5.3 mm 1.80 in45.7 mm 0.23 in5.8 mm
11:55 PM 50.6°F10.3°C 47.2°F8.4°C 92% 14.0 mph W22.5 kmh W 25.0 mph40.2 kmh 29.62 in1003.0 mb 0.18 in4.6 mm 0.00 in0.0 mm 0.23 in5.8 mm
11:57 PM 49.6°F9.8°C 45.3°F7.4°C 89% 5.0 mph WSW8.0 kmh WSW 25.0 mph40.2 kmh 29.64 in1003.7 mb 2.87 in72.9 mm 80.70 in2049.8 mm 0.30 in7.6 mm
11:59 PM 48.8°F9.3°C 44.5°F6.9°C 89% 4.0 mph WSW6.4 kmh WSW 25.0 mph40.2 kmh 29.65 in1004.1 mb 0.34 in8.6 mm 0.00 in0.0 mm 0.33 in8.4 mm